Observation data for Claude 12 Southwest on 07/17/2019      Previous  Date       Current Mesonet Observations  Soil Data  Daily Summary Page  Observations in Plain Language
KCL1 170500Z 14005KT 25/17 A3004 RMK A01 T02480167  RH  061%=      5-min Rain = 0
KCL1 170501Z 15004KT 25/17 A3004 RMK A01 T02470166  RH  061%=      5-min Rain = 0
KCL1 170502Z 14004KT 25/17 A3004 RMK A01 T02470166  RH  061%=      5-min Rain = 0
KCL1 170503Z 14005KT 25/17 A3004 RMK A01 T02470166  RH  061%=      5-min Rain = 0
KCL1 170504Z 15005KT 25/17 A3004 RMK A01 T02460165  RH  061%=      5-min Rain = 0
KCL1 170505Z 15005KT 25/16 A3004 RMK A01 T02460164  RH  060%=      5-min Rain = 0
KCL1 170506Z 16006KT 25/16 A3004 RMK A01 T02460163  RH  060%=      5-min Rain = 0
KCL1 170507Z 16006KT 25/16 A3004 RMK A01 T02470160  RH  058%=      5-min Rain = 0
KCL1 170508Z 14006KT 25/16 A3004 RMK A01 T02490157  RH  057%=      5-min Rain = 0
KCL1 170509Z 15007KT 25/16 A3004 RMK A01 T02510157  RH  056%=      5-min Rain = 0
KCL1 170510Z 15007KT 25/15 A3004 RMK A01 T02540154  RH  054%=      5-min Rain = 0
KCL1 170511Z 15007KT 26/15 A3004 RMK A01 T02570153  RH  052%=      5-min Rain = 0
KCL1 170512Z 15007KT 26/15 A3004 RMK A01 T02600154  RH  052%=      5-min Rain = 0
KCL1 170513Z 15007KT 26/15 A3004 RMK A01 T02610154  RH  052%=      5-min Rain = 0
KCL1 170514Z 15007KT 26/15 A3004 RMK A01 T02620154  RH  052%=      5-min Rain = 0
KCL1 170515Z 15007KT 26/15 A3004 RMK A01 T02620154  RH  051%=      5-min Rain = 0
KCL1 170516Z 15008KT 26/15 A3004 RMK A01 T02620153  RH  051%=      5-min Rain = 0
KCL1 170517Z 15007KT 26/15 A3004 RMK A01 T02630153  RH  051%=      5-min Rain = 0
KCL1 170518Z 15008KT 26/15 A3004 RMK A01 T02640152  RH  050%=      5-min Rain = 0
KCL1 170519Z 14008KT 26/15 A3004 RMK A01 T02640152  RH  050%=      5-min Rain = 0
KCL1 170520Z 15008KT 27/15 A3004 RMK A01 T02650152  RH  050%=      5-min Rain = 0
KCL1 170521Z 15008KT 27/15 A3004 RMK A01 T02650153  RH  050%=      5-min Rain = 0
KCL1 170522Z 14007KT 27/15 A3004 RMK A01 T02650153  RH  050%=      5-min Rain = 0
KCL1 170523Z 15008KT 27/15 A3004 RMK A01 T02650152  RH  050%=      5-min Rain = 0
KCL1 170524Z 15007KT 27/15 A3004 RMK A01 T02650151  RH  050%=      5-min Rain = 0
KCL1 170525Z 15007KT 27/15 A3004 RMK A01 T02650152  RH  050%=      5-min Rain = 0
KCL1 170526Z 15007KT 27/15 A3004 RMK A01 T02650151  RH  049%=      5-min Rain = 0
KCL1 170527Z 15007KT 27/15 A3003 RMK A01 T02660151  RH  049%=      5-min Rain = 0
KCL1 170528Z 15007KT 27/15 A3003 RMK A01 T02660151  RH  049%=      5-min Rain = 0
KCL1 170529Z 15007KT 27/15 A3003 RMK A01 T02660151  RH  049%=      5-min Rain = 0
KCL1 170530Z 15006KT 27/15 A3003 RMK A01 T02660152  RH  050%=      5-min Rain = 0
KCL1 170531Z 15007KT 27/15 A3003 RMK A01 T02650153  RH  050%=      5-min Rain = 0
KCL1 170532Z 15006KT 26/15 A3003 RMK A01 T02640153  RH  050%=      5-min Rain = 0
KCL1 170533Z 14007KT 26/15 A3003 RMK A01 T02630153  RH  051%=      5-min Rain = 0
KCL1 170534Z 15007KT 26/15 A3003 RMK A01 T02630152  RH  050%=      5-min Rain = 0
KCL1 170535Z 15007KT 26/15 A3003 RMK A01 T02630152  RH  051%=      5-min Rain = 0
KCL1 170536Z 15006KT 26/15 A3003 RMK A01 T02630150  RH  050%=      5-min Rain = 0
KCL1 170537Z 15006KT 26/15 A3003 RMK A01 T02640151  RH  050%=      5-min Rain = 0
KCL1 170538Z 15006KT 26/15 A3003 RMK A01 T02640151  RH  050%=      5-min Rain = 0
KCL1 170539Z 15006KT 26/15 A3003 RMK A01 T02640151  RH  050%=      5-min Rain = 0
KCL1 170540Z 15006KT 26/15 A3003 RMK A01 T02640151  RH  050%=      5-min Rain = 0
KCL1 170541Z 14007KT 26/15 A3003 RMK A01 T02640152  RH  050%=      5-min Rain = 0
KCL1 170542Z 15006KT 27/15 A3003 RMK A01 T02650152  RH  050%=      5-min Rain = 0
KCL1 170543Z 14006KT 26/15 A3003 RMK A01 T02640151  RH  050%=      5-min Rain = 0
KCL1 170544Z 15007KT 26/15 A3003 RMK A01 T02640151  RH  050%=      5-min Rain = 0
KCL1 170545Z 16006KT 26/15 A3003 RMK A01 T02640150  RH  049%=      5-min Rain = 0
KCL1 170546Z 16007KT 26/15 A3003 RMK A01 T02640149  RH  049%=      5-min Rain = 0
KCL1 170547Z 15007KT 27/15 A3003 RMK A01 T02650149  RH  049%=      5-min Rain = 0
KCL1 170548Z 15007KT 27/15 A3003 RMK A01 T02660150  RH  049%=      5-min Rain = 0
KCL1 170549Z 15007KT 27/15 A3003 RMK A01 T02660150  RH  049%=      5-min Rain = 0
KCL1 170550Z 15007KT 27/15 A3003 RMK A01 T02660151  RH  049%=      5-min Rain = 0
KCL1 170551Z 15008KT 27/15 A3003 RMK A01 T02660150  RH  049%=      5-min Rain = 0
KCL1 170552Z 15007KT 27/15 A3003 RMK A01 T02660150  RH  049%=      5-min Rain = 0
KCL1 170553Z 16008KT 27/15 A3003 RMK A01 T02670150  RH  049%=      5-min Rain = 0
KCL1 170554Z 16009KT 27/15 A3003 RMK A01 T02670149  RH  048%=      5-min Rain = 0
KCL1 170555Z 15007KT 27/15 A3003 RMK A01 T02690149  RH  048%=      5-min Rain = 0
KCL1 170556Z 15007KT 27/15 A3003 RMK A01 T02690150  RH  048%=      5-min Rain = 0
KCL1 170557Z 15008KT 27/15 A3003 RMK A01 T02690149  RH  048%=      5-min Rain = 0
KCL1 170558Z 16007KT 27/15 A3003 RMK A01 T02690150  RH  048%=      5-min Rain = 0
KCL1 170559Z 15008KT 27/15 A3003 RMK A01 T02690150  RH  048%=      5-min Rain = 0
KCL1 170600Z 15007KT 27/15 A3002 RMK A01 T02690151  RH  048%=      5-min Rain = 0
KCL1 170601Z 15007KT 27/15 A3002 RMK A01 T02680151  RH  049%=      5-min Rain = 0
KCL1 170602Z 15007KT 27/15 A3002 RMK A01 T02670151  RH  049%=      5-min Rain = 0
KCL1 170603Z 16007KT 27/15 A3002 RMK A01 T02660150  RH  049%=      5-min Rain = 0
KCL1 170604Z 15006KT 27/15 A3002 RMK A01 T02660150  RH  049%=      5-min Rain = 0
KCL1 170605Z 16006KT 27/15 A3002 RMK A01 T02660150  RH  049%=      5-min Rain = 0
KCL1 170606Z 16007KT 27/15 A3002 RMK A01 T02660150  RH  049%=      5-min Rain = 0
KCL1 170607Z 16007KT 27/15 A3002 RMK A01 T02660149  RH  049%=      5-min Rain = 0
KCL1 170608Z 16007KT 27/15 A3002 RMK A01 T02660149  RH  049%=      5-min Rain = 0
KCL1 170609Z 16008KT 27/15 A3002 RMK A01 T02660149  RH  049%=      5-min Rain = 0
KCL1 170610Z 16007KT 27/15 A3002 RMK A01 T02670148  RH  048%=      5-min Rain = 0
KCL1 170611Z 16007KT 27/15 A3002 RMK A01 T02680149  RH  048%=      5-min Rain = 0
KCL1 170612Z 16006KT 27/15 A3002 RMK A01 T02690149  RH  048%=      5-min Rain = 0
KCL1 170613Z 16008KT 27/15 A3003 RMK A01 T02690149  RH  048%=      5-min Rain = 0
KCL1 170614Z 16007KT 27/15 A3003 RMK A01 T02700149  RH  048%=      5-min Rain = 0
KCL1 170615Z 16008KT 27/15 A3003 RMK A01 T02700149  RH  048%=      5-min Rain = 0
KCL1 170616Z 16009KT 27/15 A3003 RMK A01 T02700149  RH  047%=      5-min Rain = 0
KCL1 170617Z 16009KT 27/15 A3003 RMK A01 T02710149  RH  047%=      5-min Rain = 0
KCL1 170618Z 17010KT 27/15 A3003 RMK A01 T02720149  RH  047%=      5-min Rain = 0
KCL1 170619Z 18008KT 27/15 A3003 RMK A01 T02730150  RH  047%=      5-min Rain = 0
KCL1 170620Z 17008KT 27/15 A3003 RMK A01 T02730150  RH  047%=      5-min Rain = 0
KCL1 170621Z 16010KT 27/15 A3003 RMK A01 T02740150  RH  047%=      5-min Rain = 0
KCL1 170622Z 17007KT 27/15 A3003 RMK A01 T02740149  RH  047%=      5-min Rain = 0
KCL1 170623Z 17007KT 27/15 A3003 RMK A01 T02740150  RH  047%=      5-min Rain = 0
KCL1 170624Z 18008KT 27/15 A3003 RMK A01 T02730150  RH  047%=      5-min Rain = 0
KCL1 170625Z 17008KT 27/15 A3003 RMK A01 T02730151  RH  047%=      5-min Rain = 0
KCL1 170626Z 18009KT 27/15 A3003 RMK A01 T02730150  RH  047%=      5-min Rain = 0
KCL1 170627Z 17008KT 27/15 A3003 RMK A01 T02730149  RH  047%=      5-min Rain = 0
KCL1 170628Z 17010KT 27/15 A3003 RMK A01 T02730150  RH  047%=      5-min Rain = 0
KCL1 170629Z 17009KT 27/15 A3003 RMK A01 T02730150  RH  047%=      5-min Rain = 0
KCL1 170630Z 17009KT 27/15 A3003 RMK A01 T02730150  RH  047%=      5-min Rain = 0
KCL1 170631Z 16007KT 27/15 A3003 RMK A01 T02740150  RH  047%=      5-min Rain = 0
KCL1 170632Z 17009KT 27/15 A3003 RMK A01 T02730150  RH  047%=      5-min Rain = 0
KCL1 170633Z 18007KT 27/15 A3003 RMK A01 T02730150  RH  047%=      5-min Rain = 0
KCL1 170634Z 17007KT 27/15 A3003 RMK A01 T02730150  RH  047%=      5-min Rain = 0
KCL1 170635Z 18008KT 27/15 A3003 RMK A01 T02720151  RH  047%=      5-min Rain = 0
KCL1 170636Z 18008KT 27/15 A3003 RMK A01 T02720151  RH  048%=      5-min Rain = 0
KCL1 170637Z 17007KT 27/15 A3003 RMK A01 T02710151  RH  048%=      5-min Rain = 0
KCL1 170638Z 17010KT 27/15 A3003 RMK A01 T02710150  RH  048%=      5-min Rain = 0
KCL1 170639Z 18010KT 27/15 A3003 RMK A01 T02710149  RH  047%=      5-min Rain = 0
KCL1 170640Z 18010KT 27/15 A3003 RMK A01 T02730150  RH  047%=      5-min Rain = 0
KCL1 170641Z 18008KT 27/15 A3003 RMK A01 T02740151  RH  047%=      5-min Rain = 0
KCL1 170642Z 17009KT 27/15 A3003 RMK A01 T02740150  RH  047%=      5-min Rain = 0
KCL1 170643Z 17008KT 27/15 A3003 RMK A01 T02740151  RH  047%=      5-min Rain = 0
KCL1 170644Z 18010KT 27/15 A3003 RMK A01 T02740152  RH  047%=      5-min Rain = 0
KCL1 170645Z 18008KT 27/15 A3003 RMK A01 T02740150  RH  047%=      5-min Rain = 0
KCL1 170646Z 19008KT 27/15 A3003 RMK A01 T02740151  RH  047%=      5-min Rain = 0
KCL1 170647Z 18009KT 27/15 A3003 RMK A01 T02730151  RH  047%=      5-min Rain = 0
KCL1 170648Z 19008KT 27/15 A3003 RMK A01 T02730151  RH  047%=      5-min Rain = 0
KCL1 170649Z 18006KT 27/15 A3003 RMK A01 T02720151  RH  047%=      5-min Rain = 0
KCL1 170650Z 19007KT 27/15 A3003 RMK A01 T02720152  RH  048%=      5-min Rain = 0
KCL1 170651Z 18011KT 27/15 A3003 RMK A01 T02710151  RH  048%=      5-min Rain = 0
KCL1 170652Z 18008KT 27/15 A3003 RMK A01 T02710151  RH  048%=      5-min Rain = 0
KCL1 170653Z 18008KT 27/15 A3003 RMK A01 T02720152  RH  048%=      5-min Rain = 0
KCL1 170654Z 18008KT 27/15 A3003 RMK A01 T02720153  RH  048%=      5-min Rain = 0
KCL1 170655Z 18008KT 27/15 A3003 RMK A01 T02710153  RH  048%=      5-min Rain = 0
KCL1 170656Z 18008KT 27/15 A3003 RMK A01 T02710152  RH  048%=      5-min Rain = 0
KCL1 170657Z 18007KT 27/15 A3003 RMK A01 T02700152  RH  048%=      5-min Rain = 0
KCL1 170658Z 18008KT 27/15 A3003 RMK A01 T02700152  RH  048%=      5-min Rain = 0
KCL1 170659Z 18010KT 27/15 A3003 RMK A01 T02700152  RH  048%=      5-min Rain = 0
KCL1 170700Z 19007KT 27/15 A3003 RMK A01 T02700153  RH  049%=      5-min Rain = 0
KCL1 170701Z 17007KT 27/15 A3003 RMK A01 T02690153  RH  049%=      5-min Rain = 0
KCL1 170702Z 18008KT 27/15 A3003 RMK A01 T02690153  RH  049%=      5-min Rain = 0
KCL1 170703Z 18009KT 27/15 A3003 RMK A01 T02680153  RH  049%=      5-min Rain = 0
KCL1 170704Z 18008KT 27/15 A3003 RMK A01 T02680153  RH  049%=      5-min Rain = 0
KCL1 170705Z 17007KT 27/15 A3003 RMK A01 T02690153  RH  049%=      5-min Rain = 0
KCL1 170706Z 18010KT 27/15 A3003 RMK A01 T02680153  RH  049%=      5-min Rain = 0
KCL1 170707Z 18010KT 27/15 A3003 RMK A01 T02680153  RH  049%=      5-min Rain = 0
KCL1 170708Z 17011KT 27/15 A3003 RMK A01 T02690153  RH  049%=      5-min Rain = 0
KCL1 170709Z 18012KT 27/15 A3003 RMK A01 T02700153  RH  049%=      5-min Rain = 0
KCL1 170710Z 18008KT 27/15 A3003 RMK A01 T02710153  RH  049%=      5-min Rain = 0
KCL1 170711Z 18009KT 27/15 A3003 RMK A01 T02710154  RH  049%=      5-min Rain = 0
KCL1 170712Z 18010KT 27/15 A3003 RMK A01 T02700154  RH  049%=      5-min Rain = 0
KCL1 170713Z 18010KT 27/15 A3003 RMK A01 T02700154  RH  049%=      5-min Rain = 0
KCL1 170714Z 18010KT 27/15 A3003 RMK A01 T02700154  RH  049%=      5-min Rain = 0
KCL1 170715Z 18009KT 27/15 A3003 RMK A01 T02700154  RH  049%=      5-min Rain = 0
KCL1 170716Z 19008KT 27/15 A3003 RMK A01 T02700154  RH  049%=      5-min Rain = 0
KCL1 170717Z 19008KT 27/15 A3003 RMK A01 T02700154  RH  049%=      5-min Rain = 0
KCL1 170718Z 19010KT 27/15 A3003 RMK A01 T02700154  RH  049%=      5-min Rain = 0
KCL1 170719Z 18008KT 27/16 A3003 RMK A01 T02700155  RH  049%=      5-min Rain = 0
KCL1 170720Z 19008KT 27/16 A3003 RMK A01 T02700155  RH  049%=      5-min Rain = 0
KCL1 170721Z 20010KT 27/15 A3003 RMK A01 T02700154  RH  049%=      5-min Rain = 0
KCL1 170722Z 19008KT 27/15 A3003 RMK A01 T02700154  RH  049%=      5-min Rain = 0
KCL1 170723Z 19009KT 27/16 A3003 RMK A01 T02700155  RH  049%=      5-min Rain = 0
KCL1 170724Z 19009KT 27/15 A3003 RMK A01 T02700154  RH  049%=      5-min Rain = 0
KCL1 170725Z 18009KT 27/15 A3003 RMK A01 T02700154  RH  049%=      5-min Rain = 0
KCL1 170726Z 19007KT 27/16 A3003 RMK A01 T02700155  RH  049%=      5-min Rain = 0
KCL1 170727Z 19007KT 27/16 A3003 RMK A01 T02700155  RH  050%=      5-min Rain = 0
KCL1 170728Z 19009KT 27/16 A3003 RMK A01 T02690155  RH  050%=      5-min Rain = 0
KCL1 170729Z 20008KT 27/16 A3003 RMK A01 T02690155  RH  050%=      5-min Rain = 0
KCL1 170730Z 20009KT 27/15 A3003 RMK A01 T02690154  RH  049%=      5-min Rain = 0
KCL1 170731Z 19010KT 27/16 A3003 RMK A01 T02690155  RH  049%=      5-min Rain = 0
KCL1 170732Z 19009KT 27/16 A3003 RMK A01 T02700155  RH  049%=      5-min Rain = 0
KCL1 170733Z 18006KT 27/16 A3003 RMK A01 T02700155  RH  050%=      5-min Rain = 0
KCL1 170734Z 19007KT 27/16 A3003 RMK A01 T02690156  RH  050%=      5-min Rain = 0
KCL1 170735Z 19008KT 27/16 A3003 RMK A01 T02680156  RH  050%=      5-min Rain = 0
KCL1 170736Z 19007KT 27/16 A3003 RMK A01 T02680156  RH  050%=      5-min Rain = 0
KCL1 170737Z 18008KT 27/16 A3003 RMK A01 T02680156  RH  050%=      5-min Rain = 0
KCL1 170738Z 19009KT 27/16 A3003 RMK A01 T02680156  RH  050%=      5-min Rain = 0
KCL1 170739Z 19010KT 27/16 A3003 RMK A01 T02680156  RH  050%=      5-min Rain = 0
KCL1 170740Z 19009KT 27/16 A3003 RMK A01 T02680156  RH  050%=      5-min Rain = 0
KCL1 170741Z 19008KT 27/16 A3003 RMK A01 T02690156  RH  050%=      5-min Rain = 0
KCL1 170742Z 18009KT 27/16 A3003 RMK A01 T02690156  RH  050%=      5-min Rain = 0
KCL1 170743Z 19006KT 27/16 A3003 RMK A01 T02690156  RH  050%=      5-min Rain = 0
KCL1 170744Z 18009KT 27/16 A3003 RMK A01 T02690157  RH  050%=      5-min Rain = 0
KCL1 170745Z 18010KT 27/16 A3003 RMK A01 T02680157  RH  050%=      5-min Rain = 0
KCL1 170746Z 19009KT 27/16 A3003 RMK A01 T02680157  RH  051%=      5-min Rain = 0
KCL1 170747Z 18009KT 27/16 A3003 RMK A01 T02670157  RH  051%=      5-min Rain = 0
KCL1 170748Z 19009KT 27/16 A3003 RMK A01 T02670157  RH  051%=      5-min Rain = 0
KCL1 170749Z 18011KT 27/16 A3003 RMK A01 T02670157  RH  051%=      5-min Rain = 0
KCL1 170750Z 19010KT 27/16 A3003 RMK A01 T02670157  RH  051%=      5-min Rain = 0
KCL1 170751Z 19009KT 27/16 A3003 RMK A01 T02670157  RH  051%=      5-min Rain = 0
KCL1 170752Z 19009KT 27/16 A3003 RMK A01 T02670157  RH  051%=      5-min Rain = 0
KCL1 170753Z 19008KT 27/16 A3003 RMK A01 T02670157  RH  051%=      5-min Rain = 0
KCL1 170754Z 19008KT 27/16 A3003 RMK A01 T02670157  RH  051%=      5-min Rain = 0
KCL1 170755Z 19006KT 27/16 A3003 RMK A01 T02670157  RH  051%=      5-min Rain = 0
KCL1 170756Z 19010KT 27/16 A3003 RMK A01 T02670158  RH  051%=      5-min Rain = 0
KCL1 170757Z 19009KT 27/16 A3003 RMK A01 T02670158  RH  051%=      5-min Rain = 0
KCL1 170758Z 18008KT 27/16 A3003 RMK A01 T02670158  RH  051%=      5-min Rain = 0
KCL1 170759Z 20006G11KT 27/16 A3003 RMK A01 T02670158  RH  051%=      5-min Rain = 0
KCL1 170800Z 20005KT 27/16 A3003 RMK A01 T02670158  RH  051%=      5-min Rain = 0
KCL1 170801Z 20004KT 27/16 A3003 RMK A01 T02670158  RH  051%=      5-min Rain = 0
KCL1 170802Z 20007KT 27/16 A3003 RMK A01 T02660158  RH  051%=      5-min Rain = 0
KCL1 170803Z 20008KT 27/16 A3003 RMK A01 T02660157  RH  051%=      5-min Rain = 0
KCL1 170804Z 19006KT 27/16 A3003 RMK A01 T02660157  RH  051%=      5-min Rain = 0
KCL1 170805Z 21009KT 27/16 A3003 RMK A01 T02660157  RH  051%=      5-min Rain = 0
KCL1 170806Z 20010KT 27/16 A3003 RMK A01 T02660157  RH  051%=      5-min Rain = 0
KCL1 170807Z 19009KT 27/16 A3003 RMK A01 T02670159  RH  051%=      5-min Rain = 0
KCL1 170808Z 20010KT 27/16 A3003 RMK A01 T02670158  RH  051%=      5-min Rain = 0
KCL1 170809Z 19007KT 27/16 A3003 RMK A01 T02670158  RH  051%=      5-min Rain = 0
KCL1 170810Z 19008KT 27/16 A3003 RMK A01 T02670158  RH  051%=      5-min Rain = 0
KCL1 170811Z 19009KT 27/16 A3003 RMK A01 T02660158  RH  051%=      5-min Rain = 0
KCL1 170812Z 18008KT 27/16 A3003 RMK A01 T02660159  RH  052%=      5-min Rain = 0
KCL1 170813Z 19007KT 27/16 A3003 RMK A01 T02650159  RH  052%=      5-min Rain = 0
KCL1 170814Z 19007KT 26/16 A3003 RMK A01 T02640159  RH  052%=      5-min Rain = 0
KCL1 170815Z 19006KT 26/16 A3003 RMK A01 T02640159  RH  052%=      5-min Rain = 0
KCL1 170816Z 20006KT 26/16 A3003 RMK A01 T02640159  RH  052%=      5-min Rain = 0
KCL1 170817Z 20007KT 26/16 A3003 RMK A01 T02630159  RH  052%=      5-min Rain = 0
KCL1 170818Z 20009KT 26/16 A3002 RMK A01 T02630158  RH  052%=      5-min Rain = 0
KCL1 170819Z 19008KT 26/16 A3002 RMK A01 T02640158  RH  052%=      5-min Rain = 0
KCL1 170820Z 18008KT 27/16 A3002 RMK A01 T02650159  RH  052%=      5-min Rain = 0
KCL1 170821Z 20007KT 27/16 A3002 RMK A01 T02650159  RH  052%=      5-min Rain = 0
KCL1 170822Z 19006KT 26/16 A3002 RMK A01 T02640159  RH  052%=      5-min Rain = 0
KCL1 170823Z 21007KT 26/16 A3002 RMK A01 T02640159  RH  052%=      5-min Rain = 0
KCL1 170824Z 20008KT 26/16 A3002 RMK A01 T02640159  RH  052%=      5-min Rain = 0
KCL1 170825Z 21008KT 26/16 A3002 RMK A01 T02640159  RH  052%=      5-min Rain = 0
KCL1 170826Z 19008KT 27/16 A3002 RMK A01 T02650158  RH  052%=      5-min Rain = 0
KCL1 170827Z 19008KT 27/16 A3002 RMK A01 T02650159  RH  052%=      5-min Rain = 0
KCL1 170828Z 19006KT 27/16 A3002 RMK A01 T02650159  RH  052%=      5-min Rain = 0
KCL1 170829Z 19007KT 27/16 A3002 RMK A01 T02650159  RH  052%=      5-min Rain = 0
KCL1 170830Z 19008KT 26/16 A3002 RMK A01 T02640160  RH  052%=      5-min Rain = 0
KCL1 170831Z 19009KT 26/16 A3002 RMK A01 T02640160  RH  053%=      5-min Rain = 0
KCL1 170832Z 19007KT 26/16 A3002 RMK A01 T02640159  RH  052%=      5-min Rain = 0
KCL1 170833Z 19009KT 26/16 A3002 RMK A01 T02640159  RH  052%=      5-min Rain = 0
KCL1 170834Z 19007KT 26/16 A3002 RMK A01 T02640160  RH  053%=      5-min Rain = 0
KCL1 170835Z 18005KT 26/16 A3002 RMK A01 T02640160  RH  053%=      5-min Rain = 0
KCL1 170836Z 19006KT 26/16 A3002 RMK A01 T02640160  RH  053%=      5-min Rain = 0
KCL1 170837Z 18007KT 26/16 A3002 RMK A01 T02630160  RH  053%=      5-min Rain = 0
KCL1 170838Z 20009KT 26/16 A3002 RMK A01 T02630160  RH  053%=      5-min Rain = 0
KCL1 170839Z 19009KT 26/16 A3002 RMK A01 T02640160  RH  053%=      5-min Rain = 0
KCL1 170840Z 18006KT 27/16 A3002 RMK A01 T02650160  RH  053%=      5-min Rain = 0
KCL1 170841Z 18007KT 27/16 A3002 RMK A01 T02650161  RH  053%=      5-min Rain = 0
KCL1 170842Z 18011G16KT 26/16 A3002 RMK A01 T02640160  RH  053%=      5-min Rain = 0
KCL1 170843Z 19011KT 26/16 A3002 RMK A01 T02640160  RH  053%=      5-min Rain = 0
KCL1 170844Z 18009G15KT 26/16 A3002 RMK A01 T02640160  RH  053%=      5-min Rain = 0
KCL1 170845Z 18010KT 26/16 A3002 RMK A01 T02640160  RH  053%=      5-min Rain = 0
KCL1 170846Z 18012KT 27/16 A3002 RMK A01 T02650160  RH  053%=      5-min Rain = 0
KCL1 170847Z 18008G14KT 27/16 A3002 RMK A01 T02660160  RH  052%=      5-min Rain = 0
KCL1 170848Z 18009KT 27/16 A3002 RMK A01 T02660161  RH  052%=      5-min Rain = 0
KCL1 170849Z 18009KT 27/16 A3002 RMK A01 T02660161  RH  052%=      5-min Rain = 0
KCL1 170850Z 18010KT 27/16 A3002 RMK A01 T02650161  RH  053%=      5-min Rain = 0
KCL1 170851Z 18010KT 27/16 A3002 RMK A01 T02650161  RH  053%=      5-min Rain = 0
KCL1 170852Z 18011KT 27/16 A3002 RMK A01 T02650161  RH  053%=      5-min Rain = 0
KCL1 170853Z 19009KT 27/16 A3002 RMK A01 T02650161  RH  053%=      5-min Rain = 0
KCL1 170854Z 19010KT 27/16 A3002 RMK A01 T02650161  RH  053%=      5-min Rain = 0
KCL1 170855Z 18013KT 27/16 A3002 RMK A01 T02650160  RH  053%=      5-min Rain = 0
KCL1 170856Z 19011KT 27/16 A3002 RMK A01 T02660160  RH  052%=      5-min Rain = 0
KCL1 170857Z 18011KT 27/16 A3002 RMK A01 T02670161  RH  052%=      5-min Rain = 0
KCL1 170858Z 17011KT 27/16 A3002 RMK A01 T02670161  RH  052%=      5-min Rain = 0
KCL1 170859Z 18010KT 27/16 A3002 RMK A01 T02670161  RH  052%=      5-min Rain = 0
KCL1 170900Z 19009KT 27/16 A3002 RMK A01 T02660161  RH  052%=      5-min Rain = 0
KCL1 170901Z 18011KT 27/16 A3002 RMK A01 T02660161  RH  053%=      5-min Rain = 0
KCL1 170902Z 18013KT 27/16 A3002 RMK A01 T02660161  RH  053%=      5-min Rain = 0
KCL1 170903Z 19011KT 27/16 A3002 RMK A01 T02660161  RH  052%=      5-min Rain = 0
KCL1 170904Z 18009KT 27/16 A3002 RMK A01 T02660161  RH  052%=      5-min Rain = 0
KCL1 170905Z 18011KT 27/16 A3002 RMK A01 T02660161  RH  052%=      5-min Rain = 0
KCL1 170906Z 17011KT 27/16 A3002 RMK A01 T02660161  RH  052%=      5-min Rain = 0
KCL1 170907Z 17009KT 27/16 A3002 RMK A01 T02660161  RH  052%=      5-min Rain = 0
KCL1 170908Z 19009KT 27/16 A3002 RMK A01 T02660161  RH  053%=      5-min Rain = 0
KCL1 170909Z 18009KT 27/16 A3002 RMK A01 T02650161  RH  053%=      5-min Rain = 0
KCL1 170910Z 18008KT 26/16 A3002 RMK A01 T02640161  RH  053%=      5-min Rain = 0
KCL1 170911Z 18008KT 26/16 A3002 RMK A01 T02640161  RH  053%=      5-min Rain = 0
KCL1 170912Z 19010KT 26/16 A3002 RMK A01 T02630161  RH  053%=      5-min Rain = 0
KCL1 170913Z 18009KT 26/16 A3002 RMK A01 T02640161  RH  053%=      5-min Rain = 0
KCL1 170914Z 18010KT 26/16 A3002 RMK A01 T02640161  RH  053%=      5-min Rain = 0
KCL1 170915Z 19010KT 26/16 A3002 RMK A01 T02640161  RH  053%=      5-min Rain = 0
KCL1 170916Z 17008KT 26/16 A3002 RMK A01 T02640161  RH  053%=      5-min Rain = 0
KCL1 170917Z 18010KT 26/16 A3002 RMK A01 T02640161  RH  053%=      5-min Rain = 0
KCL1 170918Z 17010KT 26/16 A3002 RMK A01 T02640162  RH  053%=      5-min Rain = 0
KCL1 170919Z 18011KT 26/16 A3002 RMK A01 T02630161  RH  053%=      5-min Rain = 0
KCL1 170920Z 17009KT 26/16 A3002 RMK A01 T02640162  RH  053%=      5-min Rain = 0
KCL1 170921Z 18010KT 26/16 A3002 RMK A01 T02640161  RH  053%=      5-min Rain = 0
KCL1 170922Z 18010KT 26/16 A3002 RMK A01 T02630161  RH  053%=      5-min Rain = 0
KCL1 170923Z 17011KT 26/16 A3002 RMK A01 T02640161  RH  053%=      5-min Rain = 0
KCL1 170924Z 18008KT 26/16 A3002 RMK A01 T02640161  RH  053%=      5-min Rain = 0
KCL1 170925Z 17009KT 26/16 A3002 RMK A01 T02640162  RH  053%=      5-min Rain = 0
KCL1 170926Z 17011KT 26/16 A3002 RMK A01 T02640162  RH  054%=      5-min Rain = 0
KCL1 170927Z 17010G15KT 26/16 A3002 RMK A01 T02640162  RH  053%=      5-min Rain = 0
KCL1 170928Z 17010KT 26/16 A3002 RMK A01 T02640162  RH  053%=      5-min Rain = 0
KCL1 170929Z 17010KT 26/16 A3002 RMK A01 T02630161  RH  053%=      5-min Rain = 0
KCL1 170930Z 18010KT 26/16 A3002 RMK A01 T02630161  RH  054%=      5-min Rain = 0
KCL1 170931Z 18010KT 26/16 A3002 RMK A01 T02630162  RH  054%=      5-min Rain = 0
KCL1 170932Z 19008KT 26/16 A3002 RMK A01 T02630162  RH  054%=      5-min Rain = 0
KCL1 170933Z 18011KT 26/16 A3002 RMK A01 T02620161  RH  054%=      5-min Rain = 0
KCL1 170934Z 18013KT 26/16 A3002 RMK A01 T02620161  RH  054%=      5-min Rain = 0
KCL1 170935Z 17011KT 26/16 A3002 RMK A01 T02630161  RH  054%=      5-min Rain = 0
KCL1 170936Z 18011KT 26/16 A3002 RMK A01 T02630162  RH  054%=      5-min Rain = 0
KCL1 170937Z 18012KT 26/16 A3002 RMK A01 T02640162  RH  054%=      5-min Rain = 0
KCL1 170938Z 17010KT 26/16 A3002 RMK A01 T02640162  RH  054%=      5-min Rain = 0
KCL1 170939Z 18010KT 26/16 A3002 RMK A01 T02630162  RH  054%=      5-min Rain = 0
KCL1 170940Z 18011KT 26/16 A3002 RMK A01 T02630162  RH  054%=      5-min Rain = 0
KCL1 170941Z 18011KT 26/16 A3002 RMK A01 T02630162  RH  054%=      5-min Rain = 0
KCL1 170942Z 18008KT 26/16 A3002 RMK A01 T02630162  RH  054%=      5-min Rain = 0
KCL1 170943Z 18011KT 26/16 A3001 RMK A01 T02630163  RH  054%=      5-min Rain = 0
KCL1 170944Z 18008KT 26/16 A3002 RMK A01 T02620162  RH  054%=      5-min Rain = 0
KCL1 170945Z 18008KT 26/16 A3002 RMK A01 T02630163  RH  054%=      5-min Rain = 0
KCL1 170946Z 18010KT 26/16 A3002 RMK A01 T02630162  RH  054%=      5-min Rain = 0
KCL1 170947Z 19009KT 26/16 A3002 RMK A01 T02620162  RH  054%=      5-min Rain = 0
KCL1 170948Z 20011KT 26/16 A3002 RMK A01 T02630162  RH  054%=      5-min Rain = 0
KCL1 170949Z 19009G14KT 26/16 A3002 RMK A01 T02630162  RH  054%=      5-min Rain = 0
KCL1 170950Z 21008KT 26/16 A3002 RMK A01 T02630162  RH  054%=      5-min Rain = 0
KCL1 170951Z 19007KT 26/16 A3002 RMK A01 T02630162  RH  054%=      5-min Rain = 0
KCL1 170952Z 20007KT 26/16 A3002 RMK A01 T02630162  RH  054%=      5-min Rain = 0
KCL1 170953Z 20010KT 26/16 A3002 RMK A01 T02640162  RH  054%=      5-min Rain = 0
KCL1 170954Z 21010KT 26/16 A3002 RMK A01 T02640162  RH  054%=      5-min Rain = 0
KCL1 170955Z 20008KT 27/16 A3001 RMK A01 T02650162  RH  053%=      5-min Rain = 0
KCL1 170956Z 20007KT 27/16 A3001 RMK A01 T02650163  RH  053%=      5-min Rain = 0
KCL1 170957Z 20007KT 27/16 A3001 RMK A01 T02650163  RH  053%=      5-min Rain = 0
KCL1 170958Z 21007KT 27/16 A3001 RMK A01 T02650163  RH  053%=      5-min Rain = 0
KCL1 170959Z 18009KT 27/16 A3001 RMK A01 T02650163  RH  053%=      5-min Rain = 0
KCL1 171000Z 21011KT 27/16 A3001 RMK A01 T02650163  RH  053%=      5-min Rain = 0
KCL1 171001Z 21008KT 27/16 A3001 RMK A01 T02650163  RH  053%=      5-min Rain = 0
KCL1 171002Z 20007KT 27/16 A3001 RMK A01 T02650163  RH  053%=      5-min Rain = 0
KCL1 171003Z 20008KT 27/16 A3001 RMK A01 T02650163  RH  054%=      5-min Rain = 0
KCL1 171004Z 21007KT 26/16 A3001 RMK A01 T02640163  RH  054%=      5-min Rain = 0
KCL1 171005Z 21008KT 26/16 A3001 RMK A01 T02640163  RH  054%=      5-min Rain = 0
KCL1 171006Z 23008G14KT 27/16 A3001 RMK A01 T02650163  RH  054%=      5-min Rain = 0
KCL1 171007Z 20011KT 27/16 A3001 RMK A01 T02650163  RH  054%=      5-min Rain = 0
KCL1 171008Z 20008KT 27/16 A3001 RMK A01 T02650163  RH  053%=      5-min Rain = 0
KCL1 171009Z 20014G19KT 27/16 A3001 RMK A01 T02660163  RH  053%=      5-min Rain = 0
KCL1 171010Z 21010G15KT 27/16 A3001 RMK A01 T02660163  RH  053%=      5-min Rain = 0
KCL1 171011Z 20008KT 27/16 A3001 RMK A01 T02670164  RH  053%=      5-min Rain = 0
KCL1 171012Z 22010KT 27/16 A3001 RMK A01 T02670163  RH  053%=      5-min Rain = 0
KCL1 171013Z 21009KT 27/16 A3001 RMK A01 T02670164  RH  053%=      5-min Rain = 0
KCL1 171014Z 21010KT 27/16 A3001 RMK A01 T02660164  RH  053%=      5-min Rain = 0
KCL1 171015Z 21010G15KT 27/16 A3001 RMK A01 T02660164  RH  053%=      5-min Rain = 0
KCL1 171016Z 21008KT 27/16 A3001 RMK A01 T02660164  RH  053%=      5-min Rain = 0
KCL1 171017Z 22015G20KT 27/16 A3001 RMK A01 T02650164  RH  054%=      5-min Rain = 0
KCL1 171018Z 19009G14KT 27/16 A3001 RMK A01 T02650164  RH  054%=      5-min Rain = 0
KCL1 171019Z 22007KT 27/16 A3001 RMK A01 T02650164  RH  054%=      5-min Rain = 0
KCL1 171020Z 20013G19KT 26/16 A3001 RMK A01 T02640164  RH  054%=      5-min Rain = 0
KCL1 171021Z 21015G22KT 26/16 A3001 RMK A01 T02640164  RH  054%=      5-min Rain = 0
KCL1 171022Z 22013G18KT 26/16 A3001 RMK A01 T02640164  RH  054%=      5-min Rain = 0
KCL1 171023Z 22012G17KT 26/16 A3001 RMK A01 T02640164  RH  054%=      5-min Rain = 0
KCL1 171024Z 21013KT 26/16 A3001 RMK A01 T02640164  RH  054%=      5-min Rain = 0
KCL1 171025Z 22017G22KT 27/17 A3001 RMK A01 T02650165  RH  054%=      5-min Rain = 0
KCL1 171026Z 21013G21KT 27/17 A3001 RMK A01 T02650165  RH  054%=      5-min Rain = 0
KCL1 171027Z 20016G24KT 27/17 A3001 RMK A01 T02650165  RH  054%=      5-min Rain = 0
KCL1 171028Z 20013KT 27/17 A3001 RMK A01 T02650166  RH  054%=      5-min Rain = 0
KCL1 171029Z 21014KT 27/17 A3001 RMK A01 T02650166  RH  054%=      5-min Rain = 0
KCL1 171030Z 21013KT 27/17 A3001 RMK A01 T02650166  RH  054%=      5-min Rain = 0
KCL1 171031Z 21011KT 27/17 A3001 RMK A01 T02650166  RH  054%=      5-min Rain = 0
KCL1 171032Z 22010KT 26/17 A3001 RMK A01 T02640166  RH  055%=      5-min Rain = 0
KCL1 171033Z 20012G18KT 26/17 A3001 RMK A01 T02640167  RH  055%=      5-min Rain = 0
KCL1 171034Z 22013G18KT 26/17 A3001 RMK A01 T02640167  RH  055%=      5-min Rain = 0
KCL1 171035Z 22016G21KT 26/17 A3001 RMK A01 T02640167  RH  055%=      5-min Rain = 0
KCL1 171036Z 21012G18KT 27/17 A3001 RMK A01 T02650167  RH  055%=      5-min Rain = 0
KCL1 171037Z 21010G15KT 27/17 A3001 RMK A01 T02650167  RH  055%=      5-min Rain = 0
KCL1 171038Z 22011KT 27/17 A3001 RMK A01 T02660168  RH  055%=      5-min Rain = 0
KCL1 171039Z 21013KT 27/17 A3001 RMK A01 T02650167  RH  055%=      5-min Rain = 0
KCL1 171040Z 22009G14KT 27/17 A3001 RMK A01 T02650168  RH  055%=      5-min Rain = 0
KCL1 171041Z 21010KT 27/17 A3001 RMK A01 T02650168  RH  055%=      5-min Rain = 0
KCL1 171042Z 20009KT 26/17 A3001 RMK A01 T02640168  RH  055%=      5-min Rain = 0
KCL1 171043Z 22017G23KT 26/17 A3001 RMK A01 T02640168  RH  056%=      5-min Rain = 0
KCL1 171044Z 22012G20KT 27/17 A3001 RMK A01 T02650168  RH  055%=      5-min Rain = 0
KCL1 171045Z 21015G21KT 27/17 A3001 RMK A01 T02650169  RH  055%=      5-min Rain = 0
KCL1 171046Z 21013G21KT 27/17 A3001 RMK A01 T02660169  RH  055%=      5-min Rain = 0
KCL1 171047Z 22016G24KT 27/17 A3001 RMK A01 T02660169  RH  055%=      5-min Rain = 0
KCL1 171048Z 21014KT 27/17 A3001 RMK A01 T02660169  RH  055%=      5-min Rain = 0
KCL1 171049Z 21011KT 27/17 A3001 RMK A01 T02660169  RH  055%=      5-min Rain = 0
KCL1 171050Z 21011G16KT 27/17 A3001 RMK A01 T02650169  RH  055%=      5-min Rain = 0
KCL1 171051Z 21009KT 27/17 A3001 RMK A01 T02650169  RH  056%=      5-min Rain = 0
KCL1 171052Z 22012G17KT 27/17 A3001 RMK A01 T02650170  RH  056%=      5-min Rain = 0
KCL1 171053Z 20012G19KT 26/17 A3001 RMK A01 T02640169  RH  056%=      5-min Rain = 0
KCL1 171054Z 21010KT 26/17 A3001 RMK A01 T02640169  RH  056%=      5-min Rain = 0
KCL1 171055Z 21011G16KT 26/17 A3001 RMK A01 T02640169  RH  056%=      5-min Rain = 0
KCL1 171056Z 22015KT 26/17 A3001 RMK A01 T02640169  RH  056%=      5-min Rain = 0
KCL1 171057Z 22018G23KT 26/17 A3001 RMK A01 T02640169  RH  056%=      5-min Rain = 0
KCL1 171058Z 21012G17KT 27/17 A3001 RMK A01 T02650169  RH  056%=      5-min Rain = 0
KCL1 171059Z 22015KT 27/17 A3001 RMK A01 T02650169  RH  056%=      5-min Rain = 0
KCL1 171100Z 20013G18KT 27/17 A3001 RMK A01 T02650169  RH  056%=      5-min Rain = 0
KCL1 171101Z 22014G20KT 27/17 A3001 RMK A01 T02650169  RH  056%=      5-min Rain = 0
KCL1 171102Z 21017KT 27/17 A3001 RMK A01 T02650169  RH  056%=      5-min Rain = 0
KCL1 171103Z 20016G22KT 27/17 A3001 RMK A01 T02650169  RH  056%=      5-min Rain = 0
KCL1 171104Z 20016KT 27/17 A3001 RMK A01 T02650169  RH  056%=      5-min Rain = 0
KCL1 171105Z 21012KT 27/17 A3001 RMK A01 T02650169  RH  056%=      5-min Rain = 0
KCL1 171106Z 21012KT 27/17 A3001 RMK A01 T02650169  RH  056%=      5-min Rain = 0
KCL1 171107Z 21013G20KT 26/17 A3001 RMK A01 T02640168  RH  056%=      5-min Rain = 0
KCL1 171108Z 20012G20KT 26/17 A3001 RMK A01 T02640169  RH  056%=      5-min Rain = 0
KCL1 171109Z 20011KT 26/17 A3001 RMK A01 T02640169  RH  056%=      5-min Rain = 0
KCL1 171110Z 21012G17KT 26/17 A3001 RMK A01 T02630169  RH  056%=      5-min Rain = 0
KCL1 171111Z 21012G18KT 26/17 A3001 RMK A01 T02630168  RH  056%=      5-min Rain = 0
KCL1 171112Z 20015G20KT 26/17 A3001 RMK A01 T02630168  RH  056%=      5-min Rain = 0
KCL1 171113Z 21015KT 26/17 A3001 RMK A01 T02630168  RH  056%=      5-min Rain = 0
KCL1 171114Z 20015KT 26/17 A3001 RMK A01 T02630168  RH  056%=      5-min Rain = 0
KCL1 171115Z 22016G22KT 26/17 A3001 RMK A01 T02640169  RH  056%=      5-min Rain = 0
KCL1 171116Z 21013G18KT 26/17 A3001 RMK A01 T02630169  RH  056%=      5-min Rain = 0
KCL1 171117Z 21014G19KT 26/17 A3001 RMK A01 T02640169  RH  056%=      5-min Rain = 0
KCL1 171118Z 21011KT 26/17 A3001 RMK A01 T02640168  RH  056%=      5-min Rain = 0
KCL1 171119Z 21019G24KT 26/17 A3001 RMK A01 T02640169  RH  056%=      5-min Rain = 0
KCL1 171120Z 21018G25KT 26/17 A3001 RMK A01 T02640169  RH  056%=      5-min Rain = 0
KCL1 171121Z 22015KT 26/17 A3001 RMK A01 T02640169  RH  056%=      5-min Rain = 0
KCL1 171122Z 21018G25KT 26/17 A3001 RMK A01 T02640169  RH  056%=      5-min Rain = 0
KCL1 171123Z 21015G20KT 26/17 A3001 RMK A01 T02640169  RH  056%=      5-min Rain = 0
KCL1 171124Z 20011G19KT 26/17 A3001 RMK A01 T02640169  RH  056%=      5-min Rain = 0
KCL1 171125Z 22016G25KT 26/17 A3001 RMK A01 T02630169  RH  056%=      5-min Rain = 0
KCL1 171126Z 21014G21KT 26/17 A3001 RMK A01 T02640170  RH  056%=      5-min Rain = 0
KCL1 171127Z 21015G20KT 26/17 A3001 RMK A01 T02630170  RH  056%=      5-min Rain = 0
KCL1 171128Z 22016G21KT 26/17 A3001 RMK A01 T02640170  RH  056%=      5-min Rain = 0
KCL1 171129Z 22014G22KT 26/17 A3001 RMK A01 T02630170  RH  056%=      5-min Rain = 0
KCL1 171130Z 23016KT 26/17 A3001 RMK A01 T02640170  RH  056%=      5-min Rain = 0
KCL1 171131Z 21014KT 26/17 A3001 RMK A01 T02640170  RH  056%=      5-min Rain = 0
KCL1 171132Z 22015G21KT 26/17 A3001 RMK A01 T02640170  RH  056%=      5-min Rain = 0
KCL1 171133Z 21016G21KT 26/17 A3001 RMK A01 T02640170  RH  056%=      5-min Rain = 0
KCL1 171134Z 21012G17KT 26/17 A3001 RMK A01 T02640170  RH  056%=      5-min Rain = 0
KCL1 171135Z 22012KT 26/17 A3001 RMK A01 T02640170  RH  056%=      5-min Rain = 0
KCL1 171136Z 22011KT 26/17 A3001 RMK A01 T02630170  RH  056%=      5-min Rain = 0
KCL1 171137Z 21017G23KT 26/17 A3001 RMK A01 T02630170  RH  057%=      5-min Rain = 0
KCL1 171138Z 21015G20KT 26/17 A3001 RMK A01 T02630170  RH  057%=      5-min Rain = 0
KCL1 171139Z 21011G16KT 26/17 A3001 RMK A01 T02640171  RH  057%=      5-min Rain = 0
KCL1 171140Z 22013KT 26/17 A3001 RMK A01 T02630171  RH  057%=      5-min Rain = 0
KCL1 171141Z 21014KT 26/17 A3001 RMK A01 T02630170  RH  057%=      5-min Rain = 0
KCL1 171142Z 22014KT 26/17 A3001 RMK A01 T02630170  RH  057%=      5-min Rain = 0
KCL1 171143Z 21014KT 26/17 A3001 RMK A01 T02630170  RH  057%=      5-min Rain = 0
KCL1 171144Z 21011KT 26/17 A3001 RMK A01 T02630170  RH  057%=      5-min Rain = 0
KCL1 171145Z 22012G18KT 26/17 A3001 RMK A01 T02630170  RH  057%=      5-min Rain = 0
KCL1 171146Z 21010KT 26/17 A3001 RMK A01 T02630170  RH  057%=      5-min Rain = 0
KCL1 171147Z 21012KT 26/17 A3001 RMK A01 T02620170  RH  057%=      5-min Rain = 0
KCL1 171148Z 21010KT 26/17 A3001 RMK A01 T02620170  RH  057%=      5-min Rain = 0
KCL1 171149Z 21011KT 26/17 A3001 RMK A01 T02620170  RH  057%=      5-min Rain = 0
KCL1 171150Z 22014KT 26/17 A3001 RMK A01 T02620170  RH  057%=      5-min Rain = 0
KCL1 171151Z 21016KT 26/17 A3001 RMK A01 T02620170  RH  057%=      5-min Rain = 0
KCL1 171152Z 21014G19KT 26/17 A3001 RMK A01 T02620170  RH  057%=      5-min Rain = 0
KCL1 171153Z 21009G14KT 26/17 A3001 RMK A01 T02630170  RH  057%=      5-min Rain = 0
KCL1 171154Z 22011KT 26/17 A3002 RMK A01 T02630171  RH  057%=      5-min Rain = 0
KCL1 171155Z 21012KT 26/17 A3001 RMK A01 T02620170  RH  057%=      5-min Rain = 0
KCL1 171156Z 20012KT 26/17 A3001 RMK A01 T02620170  RH  057%=      5-min Rain = 0
KCL1 171157Z 21008G13KT 26/17 A3002 RMK A01 T02620170  RH  057%=      5-min Rain = 0
KCL1 171158Z 21013KT 26/17 A3002 RMK A01 T02620170  RH  057%=      5-min Rain = 0
KCL1 171159Z 21012G18KT 26/17 A3002 RMK A01 T02620170  RH  057%=      5-min Rain = 0
KCL1 171200Z 21015G20KT 26/17 A3001 RMK A01 T02620170  RH  057%=      5-min Rain = 0
KCL1 171201Z 21013KT 26/17 A3001 RMK A01 T02620170  RH  057%=      5-min Rain = 0
KCL1 171202Z 22013KT 26/17 A3002 RMK A01 T02630170  RH  057%=      5-min Rain = 0
KCL1 171203Z 21011KT 26/17 A3002 RMK A01 T02630170  RH  057%=      5-min Rain = 0
KCL1 171204Z 22012G19KT 26/17 A3002 RMK A01 T02630170  RH  057%=      5-min Rain = 0
KCL1 171205Z 22013G18KT 26/17 A3002 RMK A01 T02630171  RH  057%=      5-min Rain = 0
KCL1 171206Z 20011G16KT 26/17 A3001 RMK A01 T02630171  RH  057%=      5-min Rain = 0
KCL1 171207Z 21013G19KT 26/17 A3002 RMK A01 T02630171  RH  057%=      5-min Rain = 0
KCL1 171208Z 22015G25KT 26/17 A3001 RMK A01 T02630171  RH  057%=      5-min Rain = 0
KCL1 171209Z 21012G17KT 26/17 A3002 RMK A01 T02630171  RH  057%=      5-min Rain = 0
KCL1 171210Z 22014G20KT 26/17 A3002 RMK A01 T02630171  RH  057%=      5-min Rain = 0
KCL1 171211Z 21013G20KT 26/17 A3002 RMK A01 T02630171  RH  057%=      5-min Rain = 0
KCL1 171212Z 21013G18KT 26/17 A3002 RMK A01 T02630171  RH  057%=      5-min Rain = 0
KCL1 171213Z 21007KT 26/17 A3002 RMK A01 T02630171  RH  057%=      5-min Rain = 0
KCL1 171214Z 22011G16KT 26/17 A3002 RMK A01 T02630171  RH  057%=      5-min Rain = 0
KCL1 171215Z 21008KT 26/17 A3002 RMK A01 T02630171  RH  057%=      5-min Rain = 0
KCL1 171216Z 21009G16KT 26/17 A3002 RMK A01 T02630171  RH  057%=      5-min Rain = 0
KCL1 171217Z 22013KT 26/17 A3002 RMK A01 T02630171  RH  057%=      5-min Rain = 0
KCL1 171218Z 22013G18KT 26/17 A3002 RMK A01 T02630171  RH  057%=      5-min Rain = 0
KCL1 171219Z 22012G17KT 26/17 A3002 RMK A01 T02620170  RH  057%=      5-min Rain = 0
KCL1 171220Z 21013KT 26/17 A3002 RMK A01 T02630171  RH  057%=      5-min Rain = 0
KCL1 171221Z 21008KT 26/17 A3003 RMK A01 T02620171  RH  057%=      5-min Rain = 0
KCL1 171222Z 20008KT 26/17 A3003 RMK A01 T02630171  RH  057%=      5-min Rain = 0
KCL1 171223Z 21009KT 26/17 A3002 RMK A01 T02620171  RH  057%=      5-min Rain = 0
KCL1 171224Z 21011KT 26/17 A3003 RMK A01 T02620171  RH  057%=      5-min Rain = 0
KCL1 171225Z 20007KT 26/17 A3003 RMK A01 T02620171  RH  057%=      5-min Rain = 0
KCL1 171226Z 21008KT 26/17 A3003 RMK A01 T02620171  RH  057%=      5-min Rain = 0
KCL1 171227Z 22009KT 26/17 A3003 RMK A01 T02620171  RH  057%=      5-min Rain = 0
KCL1 171228Z 21011KT 26/17 A3003 RMK A01 T02620171  RH  057%=      5-min Rain = 0
KCL1 171229Z 21013KT 26/17 A3003 RMK A01 T02620171  RH  058%=      5-min Rain = 0
KCL1 171230Z 20012G18KT 26/17 A3003 RMK A01 T02610171  RH  057%=      5-min Rain = 0
KCL1 171231Z 21010KT 26/17 A3003 RMK A01 T02610171  RH  057%=      5-min Rain = 0
KCL1 171232Z 21011G16KT 26/17 A3003 RMK A01 T02620171  RH  057%=      5-min Rain = 0
KCL1 171233Z 21009KT 26/17 A3003 RMK A01 T02620171  RH  057%=      5-min Rain = 0
KCL1 171234Z 21008G14KT 26/17 A3003 RMK A01 T02620171  RH  057%=      5-min Rain = 0
KCL1 171235Z 23011G16KT 26/17 A3003 RMK A01 T02620171  RH  057%=      5-min Rain = 0
KCL1 171236Z 21008G14KT 26/17 A3003 RMK A01 T02620172  RH  057%=      5-min Rain = 0
KCL1 171237Z 21011KT 26/17 A3003 RMK A01 T02620172  RH  057%=      5-min Rain = 0
KCL1 171238Z 20010KT 26/17 A3003 RMK A01 T02620172  RH  058%=      5-min Rain = 0
KCL1 171239Z 21012KT 26/17 A3003 RMK A01 T02620172  RH  058%=      5-min Rain = 0
KCL1 171240Z 23013KT 26/17 A3003 RMK A01 T02620172  RH  058%=      5-min Rain = 0
KCL1 171241Z 19007G12KT 26/17 A3003 RMK A01 T02620172  RH  057%=      5-min Rain = 0
KCL1 171242Z 20007KT 26/17 A3003 RMK A01 T02630173  RH  058%=      5-min Rain = 0
KCL1 171243Z 19006KT 26/17 A3003 RMK A01 T02630173  RH  058%=      5-min Rain = 0
KCL1 171244Z 21008G14KT 26/17 A3003 RMK A01 T02630173  RH  058%=      5-min Rain = 0
KCL1 171245Z 21008G13KT 26/17 A3003 RMK A01 T02630173  RH  058%=      5-min Rain = 0
KCL1 171246Z 21010KT 26/17 A3003 RMK A01 T02630173  RH  058%=      5-min Rain = 0
KCL1 171247Z 18006KT 26/17 A3003 RMK A01 T02630173  RH  058%=      5-min Rain = 0
KCL1 171248Z 20008G14KT 26/17 A3004 RMK A01 T02630173  RH  058%=      5-min Rain = 0
KCL1 171249Z 20015G21KT 26/17 A3003 RMK A01 T02630173  RH  058%=      5-min Rain = 0
KCL1 171250Z 23013G18KT 26/17 A3003 RMK A01 T02630173  RH  058%=      5-min Rain = 0
KCL1 171251Z 20008KT 26/17 A3004 RMK A01 T02630173  RH  058%=      5-min Rain = 0
KCL1 171252Z 19007KT 26/17 A3003 RMK A01 T02630174  RH  058%=      5-min Rain = 0
KCL1 171253Z 19007KT 26/18 A3004 RMK A01 T02640175  RH  058%=      5-min Rain = 0
KCL1 171254Z 22005G11KT 26/17 A3004 RMK A01 T02630174  RH  058%=      5-min Rain = 0
KCL1 171255Z 20006KT 26/18 A3004 RMK A01 T02640175  RH  058%=      5-min Rain = 0
KCL1 171256Z 20008G14KT 26/18 A3004 RMK A01 T02640175  RH  058%=      5-min Rain = 0
KCL1 171257Z 20010KT 26/17 A3003 RMK A01 T02630174  RH  058%=      5-min Rain = 0
KCL1 171258Z 21012G18KT 26/17 A3004 RMK A01 T02630174  RH  058%=      5-min Rain = 0
KCL1 171259Z 19012KT 26/17 A3004 RMK A01 T02630174  RH  058%=      5-min Rain = 0
KCL1 171300Z 19010KT 26/17 A3004 RMK A01 T02630174  RH  058%=      5-min Rain = 0
KCL1 171301Z 19007KT 26/17 A3004 RMK A01 T02630174  RH  058%=      5-min Rain = 0
KCL1 171302Z 21004KT 26/18 A3004 RMK A01 T02630175  RH  058%=      5-min Rain = 0
KCL1 171303Z 21007KT 26/17 A3004 RMK A01 T02630174  RH  058%=      5-min Rain = 0
KCL1 171304Z 20005KT 26/18 A3004 RMK A01 T02630175  RH  058%=      5-min Rain = 0
KCL1 171305Z 19008G13KT 26/18 A3004 RMK A01 T02640175  RH  058%=      5-min Rain = 0
KCL1 171306Z 20012KT 26/18 A3004 RMK A01 T02640175  RH  058%=      5-min Rain = 0
KCL1 171307Z 19009KT 26/18 A3004 RMK A01 T02640175  RH  058%=      5-min Rain = 0
KCL1 171308Z 21006G11KT 26/18 A3004 RMK A01 T02640176  RH  058%=      5-min Rain = 0
KCL1 171309Z 18008KT 26/18 A3004 RMK A01 T02640175  RH  058%=      5-min Rain = 0
KCL1 171310Z 19009KT 26/18 A3004 RMK A01 T02640176  RH  058%=      5-min Rain = 0
KCL1 171311Z 18013G18KT 26/18 A3004 RMK A01 T02640175  RH  058%=      5-min Rain = 0
KCL1 171312Z 20012KT 26/18 A3004 RMK A01 T02640175  RH  058%=      5-min Rain = 0
KCL1 171313Z 21009KT 26/18 A3004 RMK A01 T02640175  RH  058%=      5-min Rain = 0
KCL1 171314Z 18007KT 26/18 A3005 RMK A01 T02640175  RH  058%=      5-min Rain = 0
KCL1 171315Z 21007G14KT 26/18 A3004 RMK A01 T02640176  RH  058%=      5-min Rain = 0
KCL1 171316Z 19005KT 26/18 A3004 RMK A01 T02640176  RH  058%=      5-min Rain = 0
KCL1 171317Z 18005G10KT 27/18 A3004 RMK A01 T02650177  RH  059%=      5-min Rain = 0
KCL1 171318Z 20008KT 27/18 A3004 RMK A01 T02660178  RH  059%=      5-min Rain = 0
KCL1 171319Z 19008KT 27/18 A3004 RMK A01 T02660177  RH  058%=      5-min Rain = 0
KCL1 171320Z 19006KT 27/18 A3004 RMK A01 T02660177  RH  058%=      5-min Rain = 0
KCL1 171321Z 21003KT 27/18 A3004 RMK A01 T02660178  RH  058%=      5-min Rain = 0
KCL1 171322Z 18005KT 27/18 A3004 RMK A01 T02660177  RH  058%=      5-min Rain = 0
KCL1 171323Z 20009G16KT 27/18 A3004 RMK A01 T02670177  RH  058%=      5-min Rain = 0
KCL1 171324Z 17009KT 27/18 A3004 RMK A01 T02670177  RH  058%=      5-min Rain = 0
KCL1 171325Z 17011G16KT 27/18 A3004 RMK A01 T02670177  RH  058%=      5-min Rain = 0
KCL1 171326Z 18011KT 27/18 A3004 RMK A01 T02660176  RH  058%=      5-min Rain = 0
KCL1 171327Z 19011KT 27/18 A3004 RMK A01 T02670178  RH  058%=      5-min Rain = 0
KCL1 171328Z 19007KT 27/18 A3004 RMK A01 T02670177  RH  058%=      5-min Rain = 0
KCL1 171329Z 18010KT 27/18 A3004 RMK A01 T02670177  RH  058%=      5-min Rain = 0
KCL1 171330Z 18008KT 27/18 A3004 RMK A01 T02670177  RH  058%=      5-min Rain = 0
KCL1 171331Z 21006KT 27/18 A3005 RMK A01 T02680177  RH  057%=      5-min Rain = 0
KCL1 171332Z 19007G12KT 27/18 A3004 RMK A01 T02680177  RH  057%=      5-min Rain = 0
KCL1 171333Z 19009KT 27/18 A3004 RMK A01 T02680176  RH  057%=      5-min Rain = 0
KCL1 171334Z 18010KT 27/18 A3004 RMK A01 T02690177  RH  057%=      5-min Rain = 0
KCL1 171335Z 18006KT 27/18 A3005 RMK A01 T02690176  RH  057%=      5-min Rain = 0
KCL1 171336Z 18007KT 27/18 A3005 RMK A01 T02690177  RH  057%=      5-min Rain = 0
KCL1 171337Z 18009KT 27/18 A3005 RMK A01 T02690178  RH  057%=      5-min Rain = 0
KCL1 171338Z 19008G13KT 27/18 A3005 RMK A01 T02700177  RH  057%=      5-min Rain = 0
KCL1 171339Z 18008KT 27/18 A3005 RMK A01 T02700176  RH  056%=      5-min Rain = 0
KCL1 171340Z 19008KT 27/18 A3005 RMK A01 T02700176  RH  057%=      5-min Rain = 0
KCL1 171341Z 19006KT 27/18 A3005 RMK A01 T02700177  RH  057%=      5-min Rain = 0
KCL1 171342Z 19007KT 27/18 A3005 RMK A01 T02700177  RH  057%=      5-min Rain = 0
KCL1 171343Z 19008KT 27/18 A3005 RMK A01 T02700177  RH  057%=      5-min Rain = 0
KCL1 171344Z 19007KT 27/18 A3005 RMK A01 T02700177  RH  057%=      5-min Rain = 0
KCL1 171345Z 21007KT 27/18 A3005 RMK A01 T02710177  RH  056%=      5-min Rain = 0
KCL1 171346Z 18005KT 27/18 A3005 RMK A01 T02710178  RH  057%=      5-min Rain = 0
KCL1 171347Z 18006KT 27/18 A3005 RMK A01 T02720179  RH  057%=      5-min Rain = 0
KCL1 171348Z 18004KT 27/18 A3005 RMK A01 T02730180  RH  057%=      5-min Rain = 0
KCL1 171349Z 17007KT 28/18 A3005 RMK A01 T02750179  RH  056%=      5-min Rain = 0
KCL1 171350Z 18011KT 27/18 A3005 RMK A01 T02740178  RH  055%=      5-min Rain = 0
KCL1 171351Z 19008KT 27/18 A3005 RMK A01 T02740178  RH  056%=      5-min Rain = 0
KCL1 171352Z 18008G14KT 27/18 A3005 RMK A01 T02740178  RH  056%=      5-min Rain = 0
KCL1 171353Z 19009G14KT 27/18 A3005 RMK A01 T02740178  RH  056%=      5-min Rain = 0
KCL1 171354Z 21008KT 27/18 A3005 RMK A01 T02740177  RH  056%=      5-min Rain = 0
KCL1 171355Z 19009G15KT 27/18 A3005 RMK A01 T02730177  RH  055%=      5-min Rain = 0
KCL1 171356Z 21012G19KT 27/18 A3005 RMK A01 T02730176  RH  055%=      5-min Rain = 0
KCL1 171357Z 17008G13KT 27/18 A3005 RMK A01 T02720177  RH  056%=      5-min Rain = 0
KCL1 171358Z 20012G19KT 27/18 A3005 RMK A01 T02720176  RH  056%=      5-min Rain = 0
KCL1 171359Z 19016KT 27/18 A3005 RMK A01 T02730175  RH  055%=      5-min Rain = 0
KCL1 171400Z 17015KT 27/18 A3005 RMK A01 T02730175  RH  055%=      5-min Rain = 0
KCL1 171401Z 18015G20KT 27/18 A3005 RMK A01 T02730175  RH  055%=      5-min Rain = 0
KCL1 171402Z 18015KT 27/18 A3005 RMK A01 T02730175  RH  055%=      5-min Rain = 0
KCL1 171403Z 22011G16KT 27/18 A3005 RMK A01 T02730175  RH  055%=      5-min Rain = 0
KCL1 171404Z 20013KT 27/17 A3005 RMK A01 T02730174  RH  055%=      5-min Rain = 0
KCL1 171405Z 19013G19KT 27/18 A3005 RMK A01 T02740175  RH  055%=      5-min Rain = 0
KCL1 171406Z 19014G19KT 27/18 A3005 RMK A01 T02740175  RH  055%=      5-min Rain = 0
KCL1 171407Z 19013KT 27/18 A3005 RMK A01 T02740175  RH  055%=      5-min Rain = 0
KCL1 171408Z 20011KT 27/18 A3005 RMK A01 T02740176  RH  055%=      5-min Rain = 0
KCL1 171409Z 19010KT 28/18 A3005 RMK A01 T02750176  RH  055%=      5-min Rain = 0
KCL1 171410Z 18009KT 28/18 A3005 RMK A01 T02750177  RH  055%=      5-min Rain = 0
KCL1 171411Z 21012G17KT 28/18 A3005 RMK A01 T02760176  RH  055%=      5-min Rain = 0
KCL1 171412Z 19009KT 28/18 A3005 RMK A01 T02760176  RH  054%=      5-min Rain = 0
KCL1 171413Z 18009G14KT 28/18 A3005 RMK A01 T02750177  RH  055%=      5-min Rain = 0
KCL1 171414Z 20010KT 28/18 A3005 RMK A01 T02750176  RH  055%=      5-min Rain = 0
KCL1 171415Z 20010KT 28/18 A3005 RMK A01 T02760176  RH  055%=      5-min Rain = 0
KCL1 171416Z 18011KT 28/18 A3005 RMK A01 T02770177  RH  055%=      5-min Rain = 0
KCL1 171417Z 19011KT 28/18 A3005 RMK A01 T02780177  RH  054%=      5-min Rain = 0
KCL1 171418Z 18011G16KT 28/18 A3005 RMK A01 T02780177  RH  054%=      5-min Rain = 0
KCL1 171419Z 20011KT 28/18 A3005 RMK A01 T02780177  RH  054%=      5-min Rain = 0
KCL1 171420Z 19012G17KT 28/18 A3005 RMK A01 T02790176  RH  054%=      5-min Rain = 0
KCL1 171421Z 20007KT 28/18 A3005 RMK A01 T02790176  RH  054%=      5-min Rain = 0
KCL1 171422Z 20010G17KT 28/18 A3005 RMK A01 T02790177  RH  054%=      5-min Rain = 0
KCL1 171423Z 20007G12KT 28/18 A3005 RMK A01 T02800177  RH  054%=      5-min Rain = 0
KCL1 171424Z 19011KT 28/18 A3005 RMK A01 T02810176  RH  053%=      5-min Rain = 0
KCL1 171425Z 22009KT 28/18 A3005 RMK A01 T02810175  RH  053%=      5-min Rain = 0
KCL1 171426Z 21011KT 28/17 A3005 RMK A01 T02800174  RH  053%=      5-min Rain = 0
KCL1 171427Z 20011KT 28/17 A3005 RMK A01 T02800174  RH  053%=      5-min Rain = 0
KCL1 171428Z 20007KT 28/18 A3005 RMK A01 T02800175  RH  053%=      5-min Rain = 0
KCL1 171429Z 21008KT 28/18 A3005 RMK A01 T02800176  RH  053%=      5-min Rain = 0
KCL1 171430Z 18009KT 28/18 A3005 RMK A01 T02810176  RH  053%=      5-min Rain = 0
KCL1 171431Z 20007KT 28/18 A3005 RMK A01 T02830177  RH  053%=      5-min Rain = 0
KCL1 171432Z 22006KT 28/18 A3005 RMK A01 T02830176  RH  052%=      5-min Rain = 0
KCL1 171433Z 22012KT 28/18 A3005 RMK A01 T02840175  RH  052%=      5-min Rain = 0
KCL1 171434Z 22010KT 28/17 A3005 RMK A01 T02840174  RH  051%=      5-min Rain = 0
KCL1 171435Z 22012KT 28/17 A3005 RMK A01 T02830173  RH  051%=      5-min Rain = 0
KCL1 171436Z 21010G15KT 28/17 A3005 RMK A01 T02830173  RH  051%=      5-min Rain = 0
KCL1 171437Z 21013G20KT 28/17 A3005 RMK A01 T02830173  RH  051%=      5-min Rain = 0
KCL1 171438Z 20014KT 28/17 A3005 RMK A01 T02820172  RH  051%=      5-min Rain = 0
KCL1 171439Z 22014KT 28/17 A3005 RMK A01 T02820172  RH  051%=      5-min Rain = 0
KCL1 171440Z 22012KT 28/17 A3005 RMK A01 T02810172  RH  051%=      5-min Rain = 0
KCL1 171441Z 22010KT 28/17 A3005 RMK A01 T02820173  RH  051%=      5-min Rain = 0
KCL1 171442Z 21010KT 28/17 A3005 RMK A01 T02820173  RH  051%=      5-min Rain = 0
KCL1 171443Z 23010KT 28/17 A3005 RMK A01 T02830173  RH  052%=      5-min Rain = 0
KCL1 171444Z 23008KT 28/17 A3005 RMK A01 T02820173  RH  052%=      5-min Rain = 0
KCL1 171445Z 22010KT 28/17 A3005 RMK A01 T02830173  RH  051%=      5-min Rain = 0
KCL1 171446Z 22008KT 28/17 A3005 RMK A01 T02840174  RH  052%=      5-min Rain = 0
KCL1 171447Z 22006KT 29/18 A3005 RMK A01 T02850175  RH  051%=      5-min Rain = 0
KCL1 171448Z 22008KT 29/17 A3005 RMK A01 T02860174  RH  051%=      5-min Rain = 0
KCL1 171449Z 22006KT 29/17 A3005 RMK A01 T02860174  RH  051%=      5-min Rain = 0
KCL1 171450Z 24006KT 29/17 A3005 RMK A01 T02860174  RH  051%=      5-min Rain = 0
KCL1 171451Z 23006KT 29/17 A3005 RMK A01 T02870174  RH  050%=      5-min Rain = 0
KCL1 171452Z 23010G15KT 29/17 A3005 RMK A01 T02870174  RH  051%=      5-min Rain = 0
KCL1 171453Z 21008KT 29/17 A3005 RMK A01 T02870173  RH  050%=      5-min Rain = 0
KCL1 171454Z 19009KT 29/17 A3005 RMK A01 T02880174  RH  050%=      5-min Rain = 0
KCL1 171455Z 21011KT 29/17 A3005 RMK A01 T02890174  RH  050%=      5-min Rain = 0
KCL1 171456Z 22013KT 29/17 A3005 RMK A01 T02900172  RH  049%=      5-min Rain = 0
KCL1 171457Z 22009KT 29/17 A3005 RMK A01 T02900172  RH  049%=      5-min Rain = 0
KCL1 171458Z 23007KT 29/17 A3005 RMK A01 T02900173  RH  049%=      5-min Rain = 0
KCL1 171459Z 21007G12KT 29/17 A3005 RMK A01 T02900172  RH  049%=      5-min Rain = 0
KCL1 171500Z 21013G18KT 29/17 A3005 RMK A01 T02900172  RH  049%=      5-min Rain = 0
KCL1 171501Z 22015G20KT 29/17 A3005 RMK A01 T02900170  RH  049%=      5-min Rain = 0
KCL1 171502Z 21013KT 29/17 A3005 RMK A01 T02890171  RH  049%=      5-min Rain = 0
KCL1 171503Z 21012KT 29/17 A3005 RMK A01 T02890170  RH  049%=      5-min Rain = 0
KCL1 171504Z 21015G20KT 29/17 A3005 RMK A01 T02890170  RH  049%=      5-min Rain = 0
KCL1 171505Z 21012KT 29/17 A3005 RMK A01 T02890170  RH  049%=      5-min Rain = 0
KCL1 171506Z 21011G17KT 29/17 A3005 RMK A01 T02890171  RH  049%=      5-min Rain = 0
KCL1 171507Z 21014KT 29/17 A3005 RMK A01 T02890171  RH  049%=      5-min Rain = 0
KCL1 171508Z 21011KT 29/17 A3005 RMK A01 T02900171  RH  049%=      5-min Rain = 0
KCL1 171509Z 22010G15KT 29/17 A3005 RMK A01 T02910173  RH  049%=      5-min Rain = 0
KCL1 171510Z 21011KT 29/17 A3005 RMK A01 T02910173  RH  049%=      5-min Rain = 0
KCL1 171511Z 21012G19KT 29/17 A3005 RMK A01 T02910173  RH  049%=      5-min Rain = 0
KCL1 171512Z 21014G21KT 29/17 A3005 RMK A01 T02910172  RH  048%=      5-min Rain = 0
KCL1 171513Z 21012KT 29/17 A3005 RMK A01 T02910173  RH  049%=      5-min Rain = 0
KCL1 171514Z 21011KT 29/17 A3005 RMK A01 T02910172  RH  049%=      5-min Rain = 0
KCL1 171515Z 19011KT 29/17 A3005 RMK A01 T02920173  RH  049%=      5-min Rain = 0
KCL1 171516Z 21012G18KT 29/17 A3005 RMK A01 T02940174  RH  048%=      5-min Rain = 0
KCL1 171517Z 21010G15KT 30/17 A3005 RMK A01 T02950174  RH  048%=      5-min Rain = 0
KCL1 171518Z 21011KT 30/17 A3005 RMK A01 T02950173  RH  048%=      5-min Rain = 0
KCL1 171519Z 22012KT 30/17 A3005 RMK A01 T02960173  RH  048%=      5-min Rain = 0
KCL1 171520Z 21010KT 30/17 A3005 RMK A01 T02960172  RH  048%=      5-min Rain = 0
KCL1 171521Z 22010KT 30/17 A3005 RMK A01 T02960173  RH  048%=      5-min Rain = 0
KCL1 171522Z 22010KT 30/17 A3005 RMK A01 T02970173  RH  047%=      5-min Rain = 0
KCL1 171523Z 22011G16KT 30/17 A3005 RMK A01 T02980173  RH  047%=      5-min Rain = 0
KCL1 171524Z 22008G13KT 30/17 A3005 RMK A01 T02970173  RH  047%=      5-min Rain = 0
KCL1 171525Z 22012G17KT 30/17 A3005 RMK A01 T02980173  RH  047%=      5-min Rain = 0
KCL1 171526Z 20013KT 30/17 A3005 RMK A01 T02980172  RH  047%=      5-min Rain = 0
KCL1 171527Z 21010KT 30/17 A3005 RMK A01 T02980172  RH  047%=      5-min Rain = 0
KCL1 171528Z 20010G15KT 30/17 A3005 RMK A01 T02980173  RH  047%=      5-min Rain = 0
KCL1 171529Z 20007KT 30/17 A3005 RMK A01 T02980173  RH  047%=      5-min Rain = 0
KCL1 171530Z 20006KT 30/17 A3005 RMK A01 T03000174  RH  047%=      5-min Rain = 0
KCL1 171531Z 22009KT 30/18 A3005 RMK A01 T03010175  RH  047%=      5-min Rain = 0
KCL1 171532Z 21013G19KT 30/17 A3005 RMK A01 T03030174  RH  046%=      5-min Rain = 0
KCL1 171533Z 20014KT 30/17 A3005 RMK A01 T03020172  RH  046%=      5-min Rain = 0
KCL1 171534Z 20011KT 30/17 A3005 RMK A01 T03000173  RH  046%=      5-min Rain = 0
KCL1 171535Z 20011KT 30/17 A3005 RMK A01 T03000173  RH  046%=      5-min Rain = 0
KCL1 171536Z 21010KT 30/17 A3005 RMK A01 T03010173  RH  046%=      5-min Rain = 0
KCL1 171537Z 20011KT 30/17 A3005 RMK A01 T03020173  RH  046%=      5-min Rain = 0
KCL1 171538Z 21015G20KT 30/17 A3005 RMK A01 T03010173  RH  046%=      5-min Rain = 0
KCL1 171539Z 21015G21KT 30/17 A3005 RMK A01 T03010170  RH  045%=      5-min Rain = 0
KCL1 171540Z 20016G21KT 30/17 A3005 RMK A01 T03000170  RH  046%=      5-min Rain = 0
KCL1 171541Z 22013KT 30/17 A3005 RMK A01 T03000170  RH  046%=      5-min Rain = 0
KCL1 171542Z 22015G20KT 30/17 A3005 RMK A01 T02990170  RH  046%=      5-min Rain = 0
KCL1 171543Z 22010KT 30/17 A3005 RMK A01 T03000170  RH  046%=      5-min Rain = 0
KCL1 171544Z 23011KT 30/17 A3005 RMK A01 T03010170  RH  045%=      5-min Rain = 0
KCL1 171545Z 22012G17KT 30/17 A3005 RMK A01 T03020170  RH  045%=      5-min Rain = 0
KCL1 171546Z 21011G16KT 30/17 A3005 RMK A01 T03030170  RH  045%=      5-min Rain = 0
KCL1 171547Z 21014G19KT 30/17 A3005 RMK A01 T03030168  RH  044%=      5-min Rain = 0
KCL1 171548Z 20016G23KT 30/17 A3005 RMK A01 T03020169  RH  045%=      5-min Rain = 0
KCL1 171549Z 21009G14KT 30/17 A3005 RMK A01 T03020170  RH  045%=      5-min Rain = 0
KCL1 171550Z 22012KT 30/17 A3005 RMK A01 T03040169  RH  044%=      5-min Rain = 0
KCL1 171551Z 21010KT 31/17 A3005 RMK A01 T03050169  RH  044%=      5-min Rain = 0
KCL1 171552Z 21011KT 31/17 A3005 RMK A01 T03050169  RH  044%=      5-min Rain = 0
KCL1 171553Z 21014KT 31/17 A3005 RMK A01 T03050169  RH  044%=      5-min Rain = 0
KCL1 171554Z 20015KT 31/17 A3005 RMK A01 T03060169  RH  044%=      5-min Rain = 0
KCL1 171555Z 20012KT 31/17 A3005 RMK A01 T03050169  RH  044%=      5-min Rain = 0
KCL1 171556Z 22012G17KT 31/17 A3005 RMK A01 T03060171  RH  044%=      5-min Rain = 0
KCL1 171557Z 21011KT 31/17 A3005 RMK A01 T03080169  RH  043%=      5-min Rain = 0
KCL1 171558Z 22009KT 31/17 A3005 RMK A01 T03080171  RH  044%=      5-min Rain = 0
KCL1 171559Z 22007KT 31/17 A3005 RMK A01 T03080169  RH  043%=      5-min Rain = 0
KCL1 171600Z 22013KT 31/17 A3005 RMK A01 T03090168  RH  043%=      5-min Rain = 0
KCL1 171601Z 24009G14KT 31/17 A3005 RMK A01 T03090169  RH  043%=      5-min Rain = 0
KCL1 171602Z 21006KT 31/17 A3004 RMK A01 T03100171  RH  043%=      5-min Rain = 0
KCL1 171603Z 22011KT 31/17 A3004 RMK A01 T03110169  RH  042%=      5-min Rain = 0
KCL1 171604Z 21009KT 31/17 A3004 RMK A01 T03120169  RH  042%=      5-min Rain = 0
KCL1 171605Z 22009KT 31/17 A3004 RMK A01 T03110170  RH  043%=      5-min Rain = 0
KCL1 171606Z 21010KT 31/17 A3004 RMK A01 T03120170  RH  042%=      5-min Rain = 0
KCL1 171607Z 22011G16KT 31/17 A3004 RMK A01 T03130171  RH  043%=      5-min Rain = 0
KCL1 171608Z 21011KT 31/17 A3004 RMK A01 T03140170  RH  042%=      5-min Rain = 0
KCL1 171609Z 22010KT 31/17 A3004 RMK A01 T03140170  RH  042%=      5-min Rain = 0
KCL1 171610Z 22006KT 31/17 A3004 RMK A01 T03130171  RH  043%=      5-min Rain = 0
KCL1 171611Z 22007KT 32/17 A3004 RMK A01 T03150170  RH  042%=      5-min Rain = 0
KCL1 171612Z 21012G17KT 32/17 A3004 RMK A01 T03160169  RH  042%=      5-min Rain = 0
KCL1 171613Z 21009KT 32/17 A3004 RMK A01 T03170168  RH  041%=      5-min Rain = 0
KCL1 171614Z 22011G16KT 32/17 A3004 RMK A01 T03160166  RH  041%=      5-min Rain = 0
KCL1 171615Z 22016G21KT 32/17 A3004 RMK A01 T03150165  RH  040%=      5-min Rain = 0
KCL1 171616Z 22015G21KT 31/17 A3004 RMK A01 T03130165  RH  041%=      5-min Rain = 0
KCL1 171617Z 22013KT 31/17 A3004 RMK A01 T03120165  RH  041%=      5-min Rain = 0
KCL1 171618Z 22017KT 31/17 A3004 RMK A01 T03130165  RH  041%=      5-min Rain = 0
KCL1 171619Z 23016KT 31/16 A3004 RMK A01 T03130164  RH  041%=      5-min Rain = 0
KCL1 171620Z 22015G21KT 31/16 A3004 RMK A01 T03130162  RH  040%=      5-min Rain = 0
KCL1 171621Z 22015KT 31/16 A3004 RMK A01 T03110162  RH  041%=      5-min Rain = 0
KCL1 171622Z 22012G19KT 31/16 A3004 RMK A01 T03110164  RH  041%=      5-min Rain = 0
KCL1 171623Z 22010G21KT 31/16 A3004 RMK A01 T03120164  RH  041%=      5-min Rain = 0
KCL1 171624Z 22012G18KT 31/17 A3004 RMK A01 T03120165  RH  041%=      5-min Rain = 0
KCL1 171625Z 22016KT 31/16 A3004 RMK A01 T03130163  RH  040%=      5-min Rain = 0
KCL1 171626Z 21014G21KT 31/16 A3004 RMK A01 T03140163  RH  040%=      5-min Rain = 0
KCL1 171627Z 21017KT 31/16 A3004 RMK A01 T03140163  RH  040%=      5-min Rain = 0
KCL1 171628Z 21014KT 31/16 A3004 RMK A01 T03140163  RH  040%=      5-min Rain = 0
KCL1 171629Z 21014G19KT 31/16 A3004 RMK A01 T03140164  RH  040%=      5-min Rain = 0
KCL1 171630Z 21013G20KT 31/16 A3004 RMK A01 T03140163  RH  040%=      5-min Rain = 0
KCL1 171631Z 22013KT 31/17 A3004 RMK A01 T03140165  RH  041%=      5-min Rain = 0
KCL1 171632Z 22012G17KT 32/17 A3004 RMK A01 T03170166  RH  040%=      5-min Rain = 0
KCL1 171633Z 20015G21KT 32/17 A3004 RMK A01 T03170166  RH  040%=      5-min Rain = 0
KCL1 171634Z 20013KT 32/17 A3004 RMK A01 T03180166  RH  040%=      5-min Rain = 0
KCL1 171635Z 21010KT 32/17 A3004 RMK A01 T03180166  RH  040%=      5-min Rain = 0
KCL1 171636Z 22014KT 32/17 A3004 RMK A01 T03190166  RH  040%=      5-min Rain = 0
KCL1 171637Z 21013KT 32/17 A3004 RMK A01 T03190167  RH  040%=      5-min Rain = 0
KCL1 171638Z 22014KT 32/17 A3004 RMK A01 T03190166  RH  040%=      5-min Rain = 0
KCL1 171639Z 20016KT 32/17 A3004 RMK A01 T03190166  RH  040%=      5-min Rain = 0
KCL1 171640Z 21009G15KT 32/17 A3004 RMK A01 T03190165  RH  040%=      5-min Rain = 0
KCL1 171641Z 23015KT 32/17 A3004 RMK A01 T03200166  RH  040%=      5-min Rain = 0
KCL1 171642Z 23017KT 32/17 A3004 RMK A01 T03210166  RH  039%=      5-min Rain = 0
KCL1 171643Z 21011KT 32/17 A3004 RMK A01 T03210166  RH  040%=      5-min Rain = 0
KCL1 171644Z 22014G19KT 32/17 A3004 RMK A01 T03210166  RH  039%=      5-min Rain = 0
KCL1 171645Z 22014G19KT 32/16 A3004 RMK A01 T03220164  RH  039%=      5-min Rain = 0
KCL1 171646Z 22014G19KT 32/16 A3004 RMK A01 T03220164  RH  039%=      5-min Rain = 0
KCL1 171647Z 22014G19KT 32/17 A3004 RMK A01 T03220165  RH  039%=      5-min Rain = 0
KCL1 171648Z 22014KT 32/17 A3004 RMK A01 T03220165  RH  039%=      5-min Rain = 0
KCL1 171649Z 21012KT 32/16 A3004 RMK A01 T03220164  RH  039%=      5-min Rain = 0
KCL1 171650Z 22013KT 32/17 A3004 RMK A01 T03220165  RH  039%=      5-min Rain = 0
KCL1 171651Z 22010KT 32/17 A3004 RMK A01 T03220166  RH  039%=      5-min Rain = 0
KCL1 171652Z 20010G19KT 33/17 A3004 RMK A01 T03250166  RH  039%=      5-min Rain = 0
KCL1 171653Z 19015KT 33/17 A3004 RMK A01 T03250165  RH  038%=      5-min Rain = 0
KCL1 171654Z 19014G20KT 33/17 A3004 RMK A01 T03260166  RH  038%=      5-min Rain = 0
KCL1 171655Z 21010KT 33/17 A3004 RMK A01 T03270165  RH  038%=      5-min Rain = 0
KCL1 171656Z 21014G19KT 33/17 A3004 RMK A01 T03270165  RH  038%=      5-min Rain = 0
KCL1 171657Z 20015KT 33/16 A3004 RMK A01 T03280164  RH  037%=      5-min Rain = 0
KCL1 171658Z 21012G17KT 33/17 A3004 RMK A01 T03270165  RH  038%=      5-min Rain = 0
KCL1 171659Z 21009KT 33/17 A3004 RMK A01 T03280166  RH  038%=      5-min Rain = 0
KCL1 171700Z 19012G18KT 33/17 A3004 RMK A01 T03310167  RH  038%=      5-min Rain = 0
KCL1 171701Z 19017KT 33/17 A3004 RMK A01 T03320166  RH  037%=      5-min Rain = 0
KCL1 171702Z 20011KT 33/17 A3004 RMK A01 T03310166  RH  037%=      5-min Rain = 0
KCL1 171703Z 19015KT 33/17 A3004 RMK A01 T03300166  RH  037%=      5-min Rain = 0
KCL1 171704Z 19012G19KT 33/16 A3004 RMK A01 T03320164  RH  037%=      5-min Rain = 0
KCL1 171705Z 19017G24KT 33/16 A3004 RMK A01 T03320163  RH  036%=      5-min Rain = 0
KCL1 171706Z 21017G24KT 33/16 A3003 RMK A01 T03310161  RH  036%=      5-min Rain = 0
KCL1 171707Z 21014KT 33/16 A3004 RMK A01 T03300159  RH  036%=      5-min Rain = 0
KCL1 171708Z 21015G21KT 33/16 A3004 RMK A01 T03270161  RH  037%=      5-min Rain = 0
KCL1 171709Z 21011G19KT 33/16 A3004 RMK A01 T03260161  RH  037%=      5-min Rain = 0
KCL1 171710Z 22014G19KT 33/16 A3004 RMK A01 T03260161  RH  037%=      5-min Rain = 0
KCL1 171711Z 21014KT 33/16 A3004 RMK A01 T03280161  RH  037%=      5-min Rain = 0
KCL1 171712Z 21014G19KT 33/16 A3004 RMK A01 T03280161  RH  037%=      5-min Rain = 0
KCL1 171713Z 20014G22KT 33/16 A3003 RMK A01 T03290162  RH  037%=      5-min Rain = 0
KCL1 171714Z 20011KT 33/16 A3004 RMK A01 T03300163  RH  037%=      5-min Rain = 0
KCL1 171715Z 21012KT 33/16 A3004 RMK A01 T03310163  RH  036%=      5-min Rain = 0
KCL1 171716Z 21013G18KT 33/16 A3003 RMK A01 T03300163  RH  037%=      5-min Rain = 0
KCL1 171717Z 22011G16KT 33/16 A3003 RMK A01 T03290163  RH  037%=      5-min Rain = 0
KCL1 171718Z 21014G19KT 33/16 A3003 RMK A01 T03300160  RH  036%=      5-min Rain = 0
KCL1 171719Z 22012KT 33/16 A3003 RMK A01 T03290159  RH  036%=      5-min Rain = 0
KCL1 171720Z 19013G20KT 33/16 A3003 RMK A01 T03310161  RH  036%=      5-min Rain = 0
KCL1 171721Z 19017KT 33/16 A3003 RMK A01 T03340161  RH  036%=      5-min Rain = 0
KCL1 171722Z 18012KT 33/16 A3003 RMK A01 T03320163  RH  036%=      5-min Rain = 0
KCL1 171723Z 19016KT 33/16 A3003 RMK A01 T03320162  RH  036%=      5-min Rain = 0
KCL1 171724Z 19016G22KT 33/16 A3003 RMK A01 T03320161  RH  036%=      5-min Rain = 0
KCL1 171725Z 20017G22KT 33/16 A3003 RMK A01 T03310160  RH  036%=      5-min Rain = 0
KCL1 171726Z 20016KT 33/16 A3003 RMK A01 T03310160  RH  036%=      5-min Rain = 0
KCL1 171727Z 19018KT 33/16 A3003 RMK A01 T03310161  RH  036%=      5-min Rain = 0
KCL1 171728Z 19013G19KT 33/16 A3003 RMK A01 T03310159  RH  036%=      5-min Rain = 0
KCL1 171729Z 20014G20KT 33/16 A3004 RMK A01 T03330163  RH  036%=      5-min Rain = 0
KCL1 171730Z 19014KT 34/16 A3003 RMK A01 T03350162  RH  036%=      5-min Rain = 0
KCL1 171731Z 19012G17KT 34/16 A3004 RMK A01 T03350162  RH  036%=      5-min Rain = 0
KCL1 171732Z 20014G19KT 34/16 A3003 RMK A01 T03370164  RH  036%=      5-min Rain = 0
KCL1 171733Z 18016G23KT 34/17 A3003 RMK A01 T03370165  RH  036%=      5-min Rain = 0
KCL1 171734Z 19017G22KT 34/16 A3003 RMK A01 T03380162  RH  035%=      5-min Rain = 0
KCL1 171735Z 19015KT 34/16 A3004 RMK A01 T03380162  RH  035%=      5-min Rain = 0
KCL1 171736Z 19014G19KT 34/16 A3004 RMK A01 T03370162  RH  035%=      5-min Rain = 0
KCL1 171737Z 20015G21KT 34/16 A3003 RMK A01 T03370159  RH  035%=      5-min Rain = 0
KCL1 171738Z 19018G23KT 34/16 A3003 RMK A01 T03360159  RH  035%=      5-min Rain = 0
KCL1 171739Z 19015G21KT 34/16 A3003 RMK A01 T03350159  RH  035%=      5-min Rain = 0
KCL1 171740Z 19013KT 34/16 A3003 RMK A01 T03360162  RH  035%=      5-min Rain = 0
KCL1 171741Z 18015KT 34/16 A3003 RMK A01 T03380160  RH  035%=      5-min Rain = 0
KCL1 171742Z 18016KT 34/16 A3003 RMK A01 T03370162  RH  035%=      5-min Rain = 0
KCL1 171743Z 19014KT 34/16 A3003 RMK A01 T03370162  RH  035%=      5-min Rain = 0
KCL1 171744Z 18016KT 34/16 A3003 RMK A01 T03390161  RH  035%=      5-min Rain = 0
KCL1 171745Z 19017G22KT 34/16 A3003 RMK A01 T03390161  RH  034%=      5-min Rain = 0
KCL1 171746Z 19013G19KT 34/16 A3003 RMK A01 T03380161  RH  035%=      5-min Rain = 0
KCL1 171747Z 19018G23KT 34/16 A3003 RMK A01 T03380160  RH  035%=      5-min Rain = 0
KCL1 171748Z 20015KT 34/16 A3003 RMK A01 T03370160  RH  035%=      5-min Rain = 0
KCL1 171749Z 20012KT 34/16 A3003 RMK A01 T03360161  RH  035%=      5-min Rain = 0
KCL1 171750Z 20013G18KT 34/16 A3003 RMK A01 T03370162  RH  035%=      5-min Rain = 0
KCL1 171751Z 19011KT 34/16 A3003 RMK A01 T03360163  RH  036%=      5-min Rain = 0
KCL1 171752Z 20012G17KT 34/16 A3003 RMK A01 T03380164  RH  035%=      5-min Rain = 0
KCL1 171753Z 20015KT 34/16 A3003 RMK A01 T03400161  RH  034%=      5-min Rain = 0
KCL1 171754Z 18017G22KT 34/16 A3003 RMK A01 T03400156  RH  033%=      5-min Rain = 0
KCL1 171755Z 19012G18KT 34/16 A3003 RMK A01 T03390157  RH  034%=      5-min Rain = 0
KCL1 171756Z 19013KT 34/16 A3003 RMK A01 T03390159  RH  034%=      5-min Rain = 0
KCL1 171757Z 20009KT 34/16 A3003 RMK A01 T03380161  RH  035%=      5-min Rain = 0
KCL1 171758Z 19010G17KT 34/16 A3003 RMK A01 T03410163  RH  035%=      5-min Rain = 0
KCL1 171759Z 18015KT 34/16 A3003 RMK A01 T03440163  RH  034%=      5-min Rain = 0
KCL1 171800Z 17015G20KT 34/16 A3003 RMK A01 T03440163  RH  034%=      5-min Rain = 0
KCL1 171801Z 17015G20KT 34/16 A3003 RMK A01 T03420162  RH  034%=      5-min Rain = 0
KCL1 171802Z 18013G18KT 34/16 A3003 RMK A01 T03420162  RH  034%=      5-min Rain = 0
KCL1 171803Z 18013KT 34/16 A3003 RMK A01 T03430164  RH  034%=      5-min Rain = 0
KCL1 171804Z 18016G23KT 34/16 A3003 RMK A01 T03440164  RH  034%=      5-min Rain = 0
KCL1 171805Z 18015KT 34/16 A3003 RMK A01 T03440164  RH  034%=      5-min Rain = 0
KCL1 171806Z 17015G20KT 34/16 A3003 RMK A01 T03420161  RH  034%=      5-min Rain = 0
KCL1 171807Z 18014KT 34/16 A3003 RMK A01 T03420161  RH  034%=      5-min Rain = 0
KCL1 171808Z 18013KT 34/16 A3003 RMK A01 T03420161  RH  034%=      5-min Rain = 0
KCL1 171809Z 19014KT 34/16 A3003 RMK A01 T03410163  RH  034%=      5-min Rain = 0
KCL1 171810Z 19011KT 34/16 A3003 RMK A01 T03420162  RH  034%=      5-min Rain = 0
KCL1 171811Z 19011KT 34/16 A3003 RMK A01 T03440162  RH  034%=      5-min Rain = 0
KCL1 171812Z 20007G12KT 34/16 A3003 RMK A01 T03430162  RH  034%=      5-min Rain = 0
KCL1 171813Z 17011G16KT 34/17 A3003 RMK A01 T03430165  RH  035%=      5-min Rain = 0
KCL1 171814Z 19013G20KT 35/16 A3003 RMK A01 T03450161  RH  033%=      5-min Rain = 0
KCL1 171815Z 17016KT 35/16 A3003 RMK A01 T03460160  RH  033%=      5-min Rain = 0
KCL1 171816Z 17015KT 35/16 A3003 RMK A01 T03450157  RH  033%=      5-min Rain = 0
KCL1 171817Z 17011KT 34/16 A3003 RMK A01 T03440157  RH  033%=      5-min Rain = 0
KCL1 171818Z 16013KT 35/16 A3003 RMK A01 T03470162  RH  033%=      5-min Rain = 0
KCL1 171819Z 17012KT 35/16 A3003 RMK A01 T03480161  RH  033%=      5-min Rain = 0
KCL1 171820Z 19013G20KT 35/16 A3003 RMK A01 T03460162  RH  033%=      5-min Rain = 0
KCL1 171821Z 18017G23KT 35/16 A3002 RMK A01 T03450162  RH  034%=      5-min Rain = 0
KCL1 171822Z 19014G20KT 34/16 A3002 RMK A01 T03440161  RH  034%=      5-min Rain = 0
KCL1 171823Z 18013G18KT 34/16 A3003 RMK A01 T03440164  RH  034%=      5-min Rain = 0
KCL1 171824Z 18013KT 35/16 A3002 RMK A01 T03460160  RH  033%=      5-min Rain = 0
KCL1 171825Z 20010KT 35/16 A3002 RMK A01 T03470161  RH  033%=      5-min Rain = 0
KCL1 171826Z 21010KT 35/16 A3002 RMK A01 T03470162  RH  033%=      5-min Rain = 0
KCL1 171827Z 18009KT 35/16 A3002 RMK A01 T03470164  RH  034%=      5-min Rain = 0
KCL1 171828Z 16012KT 35/16 A3002 RMK A01 T03480164  RH  034%=      5-min Rain = 0
KCL1 171829Z 17012G17KT 35/16 A3002 RMK A01 T03510160  RH  032%=      5-min Rain = 0
KCL1 171830Z 17014KT 35/16 A3002 RMK A01 T03500160  RH  032%=      5-min Rain = 0
KCL1 171831Z 17012KT 35/16 A3002 RMK A01 T03480162  RH  033%=      5-min Rain = 0
KCL1 171832Z 17011KT 35/16 A3002 RMK A01 T03480163  RH  033%=      5-min Rain = 0
KCL1 171833Z 19016KT 35/16 A3002 RMK A01 T03500162  RH  033%=      5-min Rain = 0
KCL1 171834Z 17014KT 35/16 A3002 RMK A01 T03480164  RH  033%=      5-min Rain = 0
KCL1 171835Z 17015KT 35/16 A3001 RMK A01 T03490163  RH  033%=      5-min Rain = 0
KCL1 171836Z 19016KT 35/16 A3002 RMK A01 T03490162  RH  033%=      5-min Rain = 0
KCL1 171837Z 20015KT 35/16 A3002 RMK A01 T03480158  RH  032%=      5-min Rain = 0
KCL1 171838Z 20015KT 35/16 A3002 RMK A01 T03470156  RH  032%=      5-min Rain = 0
KCL1 171839Z 21014G19KT 34/16 A3002 RMK A01 T03430157  RH  033%=      5-min Rain = 0
KCL1 171840Z 21012KT 34/16 A3002 RMK A01 T03420158  RH  033%=      5-min Rain = 0
KCL1 171841Z 20010KT 34/16 A3002 RMK A01 T03420159  RH  033%=      5-min Rain = 0
KCL1 171842Z 19007KT 34/16 A3001 RMK A01 T03410159  RH  034%=      5-min Rain = 0
KCL1 171843Z 20014G20KT 34/16 A3001 RMK A01 T03400160  RH  034%=      5-min Rain = 0
KCL1 171844Z 21017KT 34/16 A3002 RMK A01 T03380156  RH  034%=      5-min Rain = 0
KCL1 171845Z 19014KT 34/16 A3001 RMK A01 T03390156  RH  034%=      5-min Rain = 0
KCL1 171846Z 18014G19KT 34/16 A3002 RMK A01 T03410158  RH  034%=      5-min Rain = 0
KCL1 171847Z 20014KT 34/16 A3002 RMK A01 T03430157  RH  033%=      5-min Rain = 0
KCL1 171848Z 19012G18KT 34/16 A3002 RMK A01 T03430156  RH  033%=      5-min Rain = 0
KCL1 171849Z 21014G20KT 34/16 A3002 RMK A01 T03430155  RH  033%=      5-min Rain = 0
KCL1 171850Z 20012KT 34/16 A3002 RMK A01 T03430155  RH  033%=      5-min Rain = 0
KCL1 171851Z 21012KT 34/15 A3002 RMK A01 T03430154  RH  032%=      5-min Rain = 0
KCL1 171852Z 20014KT 34/16 A3001 RMK A01 T03420157  RH  033%=      5-min Rain = 0
KCL1 171853Z 19016KT 34/16 A3001 RMK A01 T03420156  RH  033%=      5-min Rain = 0
KCL1 171854Z 20013KT 34/16 A3002 RMK A01 T03420156  RH  033%=      5-min Rain = 0
KCL1 171855Z 20010KT 34/16 A3002 RMK A01 T03420155  RH  033%=      5-min Rain = 0
KCL1 171856Z 18010KT 34/16 A3001 RMK A01 T03420156  RH  033%=      5-min Rain = 0
KCL1 171857Z 20008KT 35/16 A3001 RMK A01 T03460159  RH  033%=      5-min Rain = 0
KCL1 171858Z 21009KT 35/16 A3001 RMK A01 T03520158  RH  032%=      5-min Rain = 0
KCL1 171859Z 20008KT 35/16 A3001 RMK A01 T03540155  RH  031%=      5-min Rain = 0
KCL1 171900Z 18009G15KT 36/15 A3001 RMK A01 T03550153  RH  030%=      5-min Rain = 0
KCL1 171901Z 17013KT 35/16 A3001 RMK A01 T03530156  RH  031%=      5-min Rain = 0
KCL1 171902Z 19013KT 35/16 A3001 RMK A01 T03500157  RH  032%=      5-min Rain = 0
KCL1 171903Z 21016G21KT 35/15 A3001 RMK A01 T03510154  RH  031%=      5-min Rain = 0
KCL1 171904Z 21013KT 35/15 A3001 RMK A01 T03510154  RH  031%=      5-min Rain = 0
KCL1 171905Z 20013KT 35/15 A3001 RMK A01 T03490154  RH  031%=      5-min Rain = 0
KCL1 171906Z 20012KT 35/15 A3001 RMK A01 T03470154  RH  032%=      5-min Rain = 0
KCL1 171907Z 19014G21KT 35/15 A3001 RMK A01 T03470153  RH  031%=      5-min Rain = 0
KCL1 171908Z 20012G17KT 35/15 A3001 RMK A01 T03490153  RH  031%=      5-min Rain = 0
KCL1 171909Z 19011KT 35/15 A3001 RMK A01 T03490152  RH  031%=      5-min Rain = 0
KCL1 171910Z 19012KT 35/15 A3001 RMK A01 T03490149  RH  030%=      5-min Rain = 0
KCL1 171911Z 19012G18KT 35/15 A3001 RMK A01 T03480146  RH  030%=      5-min Rain = 0
KCL1 171912Z 19013KT 35/14 A3001 RMK A01 T03490143  RH  029%=      5-min Rain = 0
KCL1 171913Z 19012KT 35/14 A3001 RMK A01 T03490142  RH  029%=      5-min Rain = 0
KCL1 171914Z 20012KT 35/14 A3001 RMK A01 T03510141  RH  029%=      5-min Rain = 0
KCL1 171915Z 19010KT 35/14 A3001 RMK A01 T03480140  RH  029%=      5-min Rain = 0
KCL1 171916Z 20007KT 35/15 A3001 RMK A01 T03490146  RH  030%=      5-min Rain = 0
KCL1 171917Z 20012G21KT 35/15 A3001 RMK A01 T03540145  RH  029%=      5-min Rain = 0
KCL1 171918Z 19014G20KT 36/14 A3001 RMK A01 T03560144  RH  028%=      5-min Rain = 0
KCL1 171919Z 21012KT 36/15 A3001 RMK A01 T03550145  RH  028%=      5-min Rain = 0
KCL1 171920Z 20014G20KT 35/14 A3001 RMK A01 T03510143  RH  029%=      5-min Rain = 0
KCL1 171921Z 19012KT 35/14 A3001 RMK A01 T03500144  RH  029%=      5-min Rain = 0
KCL1 171922Z 20015G21KT 35/14 A3001 RMK A01 T03500142  RH  029%=      5-min Rain = 0
KCL1 171923Z 20012KT 35/14 A3001 RMK A01 T03500142  RH  029%=      5-min Rain = 0
KCL1 171924Z 20012KT 35/14 A3001 RMK A01 T03500143  RH  029%=      5-min Rain = 0
KCL1 171925Z 20011KT 35/15 A3001 RMK A01 T03510148  RH  030%=      5-min Rain = 0
KCL1 171926Z 20011KT 36/15 A3001 RMK A01 T03550147  RH  029%=      5-min Rain = 0
KCL1 171927Z 20009KT 36/14 A3001 RMK A01 T03550143  RH  028%=      5-min Rain = 0
KCL1 171928Z 20014KT 35/14 A3001 RMK A01 T03520139  RH  028%=      5-min Rain = 0
KCL1 171929Z 22012KT 35/14 A3001 RMK A01 T03480140  RH  029%=      5-min Rain = 0
KCL1 171930Z 23013KT 35/14 A3001 RMK A01 T03500137  RH  028%=      5-min Rain = 0
KCL1 171931Z 22011KT 35/14 A30 RMK A01 T03510140  RH  028%=      5-min Rain = 0
KCL1 171932Z 23012KT 35/14 A3001 RMK A01 T03520143  RH  029%=      5-min Rain = 0
KCL1 171933Z 22012G18KT 35/15 A3001 RMK A01 T03510145  RH  029%=      5-min Rain = 0
KCL1 171934Z 22013G20KT 35/15 A30 RMK A01 T03500146  RH  030%=      5-min Rain = 0
KCL1 171935Z 22012G17KT 35/15 A3001 RMK A01 T03500148  RH  030%=      5-min Rain = 0
KCL1 171936Z 22013KT 35/15 A3001 RMK A01 T03500148  RH  030%=      5-min Rain = 0
KCL1 171937Z 21010KT 35/15 A3001 RMK A01 T03510147  RH  030%=      5-min Rain = 0
KCL1 171938Z 20009G15KT 35/15 A3001 RMK A01 T03510147  RH  030%=      5-min Rain = 0
KCL1 171939Z 21010KT 35/15 A30 RMK A01 T03510146  RH  029%=      5-min Rain = 0
KCL1 171940Z 22011KT 35/15 A30 RMK A01 T03510146  RH  029%=      5-min Rain = 0
KCL1 171941Z 22011G21KT 35/15 A30 RMK A01 T03520147  RH  029%=      5-min Rain = 0
KCL1 171942Z 21012G18KT 35/15 A30 RMK A01 T03520145  RH  029%=      5-min Rain = 0
KCL1 171943Z 19014G20KT 35/15 A30 RMK A01 T03510148  RH  030%=      5-min Rain = 0
KCL1 171944Z 19012KT 35/15 A30 RMK A01 T03520147  RH  029%=      5-min Rain = 0
KCL1 171945Z 20010G17KT 35/15 A30 RMK A01 T03520148  RH  030%=      5-min Rain = 0
KCL1 171946Z 20011KT 35/15 A30 RMK A01 T03530148  RH  029%=      5-min Rain = 0
KCL1 171947Z 19010KT 35/15 A30 RMK A01 T03540148  RH  029%=      5-min Rain = 0
KCL1 171948Z 19011KT 35/15 A30 RMK A01 T03540147  RH  029%=      5-min Rain = 0
KCL1 171949Z 18013KT 35/15 A30 RMK A01 T03510147  RH  029%=      5-min Rain = 0
KCL1 171950Z 22015G20KT 35/15 A30 RMK A01 T03500145  RH  029%=      5-min Rain = 0
KCL1 171951Z 23016KT 35/15 A30 RMK A01 T03500145  RH  029%=      5-min Rain = 0
KCL1 171952Z 22012KT 35/14 A30 RMK A01 T03500144  RH  029%=      5-min Rain = 0
KCL1 171953Z 22011KT 35/14 A30 RMK A01 T03480144  RH  029%=      5-min Rain = 0
KCL1 171954Z 23013KT 35/14 A30 RMK A01 T03490143  RH  029%=      5-min Rain = 0
KCL1 171955Z 21010G15KT 35/14 A30 RMK A01 T03510142  RH  029%=      5-min Rain = 0
KCL1 171956Z 21008G14KT 35/15 A30 RMK A01 T03520145  RH  029%=      5-min Rain = 0
KCL1 171957Z 22011KT 36/15 A30 RMK A01 T03550145  RH  029%=      5-min Rain = 0
KCL1 171958Z 22007G15KT 36/15 A30 RMK A01 T03560145  RH  028%=      5-min Rain = 0
KCL1 171959Z 21007KT 36/15 A30 RMK A01 T03550145  RH  028%=      5-min Rain = 0
KCL1 172000Z 19007KT 36/15 A30 RMK A01 T03550146  RH  029%=      5-min Rain = 0
KCL1 172001Z 20013KT 36/15 A30 RMK A01 T03560148  RH  029%=      5-min Rain = 0
KCL1 172002Z 17012KT 36/15 A30 RMK A01 T03580151  RH  029%=      5-min Rain = 0
KCL1 172003Z 18013KT 36/15 A30 RMK A01 T03590151  RH  029%=      5-min Rain = 0
KCL1 172004Z 18014KT 36/15 A30 RMK A01 T03570151  RH  029%=      5-min Rain = 0
KCL1 172005Z 18008G13KT 36/15 A30 RMK A01 T03560152  RH  030%=      5-min Rain = 0
KCL1 172006Z 19009KT 36/15 A30 RMK A01 T03560150  RH  029%=      5-min Rain = 0
KCL1 172007Z 17010KT 36/15 A30 RMK A01 T03560154  RH  030%=      5-min Rain = 0
KCL1 172008Z 19011KT 36/15 A30 RMK A01 T03590152  RH  029%=      5-min Rain = 0
KCL1 172009Z 20010KT 36/15 A30 RMK A01 T03590150  RH  029%=      5-min Rain = 0
KCL1 172010Z 17010KT 36/15 A30 RMK A01 T03590152  RH  029%=      5-min Rain = 0
KCL1 172011Z 16017G22KT 36/15 A2999 RMK A01 T03600150  RH  029%=      5-min Rain = 0
KCL1 172012Z 18015KT 36/15 A2999 RMK A01 T03590150  RH  029%=      5-min Rain = 0
KCL1 172013Z 18013KT 36/15 A30 RMK A01 T03600150  RH  029%=      5-min Rain = 0
KCL1 172014Z 19013KT 36/15 A30 RMK A01 T03600148  RH  028%=      5-min Rain = 0
KCL1 172015Z 20011G17KT 36/15 A30 RMK A01 T03600146  RH  028%=      5-min Rain = 0
KCL1 172016Z 19012KT 36/15 A30 RMK A01 T03580145  RH  028%=      5-min Rain = 0
KCL1 172017Z 19009KT 36/15 A2999 RMK A01 T03570145  RH  028%=      5-min Rain = 0
KCL1 172018Z 20009KT 36/15 A2999 RMK A01 T03560146  RH  029%=      5-min Rain = 0
KCL1 172019Z 20006KT 35/15 A2999 RMK A01 T03540145  RH  029%=      5-min Rain = 0
KCL1 172020Z 17008KT 35/15 A2999 RMK A01 T03530147  RH  029%=      5-min Rain = 0
KCL1 172021Z 18010KT 36/15 A2999 RMK A01 T03560147  RH  029%=      5-min Rain = 0
KCL1 172022Z 22008KT 36/15 A2999 RMK A01 T03580147  RH  028%=      5-min Rain = 0
KCL1 172023Z 22009KT 36/15 A2999 RMK A01 T03580147  RH  028%=      5-min Rain = 0
KCL1 172024Z 20008KT 36/15 A2999 RMK A01 T03590145  RH  028%=      5-min Rain = 0
KCL1 172025Z 20009KT 36/15 A2999 RMK A01 T03590147  RH  028%=      5-min Rain = 0
KCL1 172026Z 19009KT 36/15 A2999 RMK A01 T03620149  RH  028%=      5-min Rain = 0
KCL1 172027Z 17011KT 36/15 A2999 RMK A01 T03640151  RH  028%=      5-min Rain = 0
KCL1 172028Z 16010KT 37/15 A2999 RMK A01 T03650151  RH  028%=      5-min Rain = 0
KCL1 172029Z 16012KT 37/15 A2999 RMK A01 T03650149  RH  028%=      5-min Rain = 0
KCL1 172030Z 18012KT 36/15 A2999 RMK A01 T03600149  RH  028%=      5-min Rain = 0
KCL1 172031Z 19011KT 36/15 A2999 RMK A01 T03580149  RH  029%=      5-min Rain = 0
KCL1 172032Z 20010KT 36/15 A2999 RMK A01 T03590149  RH  029%=      5-min Rain = 0
KCL1 172033Z 21011KT 36/15 A2999 RMK A01 T03600149  RH  029%=      5-min Rain = 0
KCL1 172034Z 19010KT 36/15 A2999 RMK A01 T03580148  RH  029%=      5-min Rain = 0
KCL1 172035Z 16012KT 36/15 A2999 RMK A01 T03580149  RH  029%=      5-min Rain = 0
KCL1 172036Z 16011KT 36/15 A2998 RMK A01 T03580148  RH  029%=      5-min Rain = 0
KCL1 172037Z 16010KT 36/15 A2998 RMK A01 T03590151  RH  029%=      5-min Rain = 0
KCL1 172038Z 19013G18KT 36/15 A2999 RMK A01 T03630150  RH  028%=      5-min Rain = 0
KCL1 172039Z 21012KT 36/15 A2999 RMK A01 T03630147  RH  028%=      5-min Rain = 0
KCL1 172040Z 22010KT 36/15 A2998 RMK A01 T03600145  RH  028%=      5-min Rain = 0
KCL1 172041Z 21009KT 36/15 A2998 RMK A01 T03560145  RH  028%=      5-min Rain = 0
KCL1 172042Z 20014KT 36/15 A2998 RMK A01 T03560146  RH  029%=      5-min Rain = 0
KCL1 172043Z 18013KT 36/15 A2998 RMK A01 T03590146  RH  028%=      5-min Rain = 0
KCL1 172044Z 21010G15KT 36/15 A2998 RMK A01 T03600146  RH  028%=      5-min Rain = 0
KCL1 172045Z 23012KT 36/14 A2998 RMK A01 T03610144  RH  027%=      5-min Rain = 0
KCL1 172046Z 22007KT 36/14 A2998 RMK A01 T03590144  RH  028%=      5-min Rain = 0
KCL1 172047Z 20008KT 36/14 A2998 RMK A01 T03550142  RH  028%=      5-min Rain = 0
KCL1 172048Z 21008KT 35/14 A2998 RMK A01 T03530143  RH  029%=      5-min Rain = 0
KCL1 172049Z 22009KT 35/14 A2998 RMK A01 T03520143  RH  029%=      5-min Rain = 0
KCL1 172050Z 20008KT 35/14 A2998 RMK A01 T03530143  RH  028%=      5-min Rain = 0
KCL1 172051Z 17009KT 36/15 A2998 RMK A01 T03560145  RH  028%=      5-min Rain = 0
KCL1 172052Z 19008KT 36/14 A2998 RMK A01 T03570144  RH  028%=      5-min Rain = 0
KCL1 172053Z 18010KT 36/15 A2998 RMK A01 T03570146  RH  028%=      5-min Rain = 0
KCL1 172054Z 16014KT 36/15 A2998 RMK A01 T03560146  RH  029%=      5-min Rain = 0
KCL1 172055Z 15011KT 36/14 A2998 RMK A01 T03570144  RH  028%=      5-min Rain = 0
KCL1 172056Z 16012G17KT 36/15 A2998 RMK A01 T03570146  RH  028%=      5-min Rain = 0
KCL1 172057Z 15015KT 36/15 A2998 RMK A01 T03590146  RH  028%=      5-min Rain = 0
KCL1 172058Z 15014G19KT 36/14 A2998 RMK A01 T03600144  RH  028%=      5-min Rain = 0
KCL1 172059Z 15012KT 36/14 A2998 RMK A01 T03600142  RH  027%=      5-min Rain = 0
KCL1 172100Z 13014KT 36/14 A2997 RMK A01 T03600143  RH  027%=      5-min Rain = 0
KCL1 172101Z 14014KT 36/14 A2997 RMK A01 T03580139  RH  027%=      5-min Rain = 0
KCL1 172102Z 15014KT 35/14 A2998 RMK A01 T03540140  RH  028%=      5-min Rain = 0
KCL1 172103Z 15016KT 35/14 A2998 RMK A01 T03520138  RH  028%=      5-min Rain = 0
KCL1 172104Z 15016KT 35/14 A2997 RMK A01 T03520136  RH  027%=      5-min Rain = 0
KCL1 172105Z 14014KT 35/14 A2997 RMK A01 T03540137  RH  027%=      5-min Rain = 0
KCL1 172106Z 15012KT 36/14 A2997 RMK A01 T03550137  RH  027%=      5-min Rain = 0
KCL1 172107Z 17011G16KT 36/14 A2997 RMK A01 T03570141  RH  027%=      5-min Rain = 0
KCL1 172108Z 19012G17KT 36/14 A2998 RMK A01 T03610140  RH  027%=      5-min Rain = 0
KCL1 172109Z 19013KT 36/14 A2998 RMK A01 T03590141  RH  027%=      5-min Rain = 0
KCL1 172110Z 18009G14KT 36/14 A2998 RMK A01 T03580139  RH  027%=      5-min Rain = 0
KCL1 172111Z 20005KT 36/14 A2998 RMK A01 T03600141  RH  027%=      5-min Rain = 0
KCL1 172112Z 19016KT 36/14 A2997 RMK A01 T03640141  RH  027%=      5-min Rain = 0
KCL1 172113Z 17012G18KT 36/14 A2997 RMK A01 T03620138  RH  026%=      5-min Rain = 0
KCL1 172114Z 16012G17KT 36/14 A2997 RMK A01 T03620141  RH  027%=      5-min Rain = 0
KCL1 172115Z 15012G17KT 37/14 A2997 RMK A01 T03650142  RH  026%=      5-min Rain = 0
KCL1 172116Z 15013KT 37/14 A2997 RMK A01 T03660138  RH  026%=      5-min Rain = 0
KCL1 172117Z 16009KT 36/14 A2997 RMK A01 T03620137  RH  026%=      5-min Rain = 0
KCL1 172118Z 17010G20KT 36/14 A2997 RMK A01 T03600138  RH  027%=      5-min Rain = 0
KCL1 172119Z 19013G18KT 36/14 A2997 RMK A01 T03630138  RH  026%=      5-min Rain = 0
KCL1 172120Z 19013KT 36/14 A2997 RMK A01 T03630137  RH  026%=      5-min Rain = 0
KCL1 172121Z 18013KT 36/14 A2997 RMK A01 T03620137  RH  026%=      5-min Rain = 0
KCL1 172122Z 17009KT 36/14 A2997 RMK A01 T03630137  RH  026%=      5-min Rain = 0
KCL1 172123Z 15013G19KT 37/14 A2997 RMK A01 T03650138  RH  026%=      5-min Rain = 0
KCL1 172124Z 18009KT 37/14 A2997 RMK A01 T03680139  RH  026%=      5-min Rain = 0
KCL1 172125Z 16013KT 37/14 A2997 RMK A01 T03700138  RH  025%=      5-min Rain = 0
KCL1 172126Z 16014G20KT 37/14 A2997 RMK A01 T03690139  RH  025%=      5-min Rain = 0
KCL1 172127Z 15014G19KT 37/14 A2997 RMK A01 T03690138  RH  025%=      5-min Rain = 0
KCL1 172128Z 16011KT 37/14 A2997 RMK A01 T03680138  RH  025%=      5-min Rain = 0
KCL1 172129Z 19012KT 37/14 A2997 RMK A01 T03680138  RH  025%=      5-min Rain = 0
KCL1 172130Z 19010G18KT 37/14 A2997 RMK A01 T03690138  RH  025%=      5-min Rain = 0
KCL1 172131Z 16013G18KT 37/14 A2997 RMK A01 T03690136  RH  025%=      5-min Rain = 0
KCL1 172132Z 18012KT 37/14 A2997 RMK A01 T03660137  RH  025%=      5-min Rain = 0
KCL1 172133Z 18006KT 37/14 A2997 RMK A01 T03650136  RH  026%=      5-min Rain = 0
KCL1 172134Z 20006G12KT 36/14 A2997 RMK A01 T03640136  RH  026%=      5-min Rain = 0
KCL1 172135Z 19011KT 36/13 A2997 RMK A01 T03640134  RH  025%=      5-min Rain = 0
KCL1 172136Z 20015KT 36/13 A2997 RMK A01 T03640134  RH  025%=      5-min Rain = 0
KCL1 172137Z 22011KT 36/13 A2997 RMK A01 T03620132  RH  025%=      5-min Rain = 0
KCL1 172138Z 20011KT 36/14 A2997 RMK A01 T03620135  RH  026%=      5-min Rain = 0
KCL1 172139Z 18011KT 37/14 A2997 RMK A01 T03660135  RH  025%=      5-min Rain = 0
KCL1 172140Z 18010KT 37/14 A2997 RMK A01 T03680135  RH  025%=      5-min Rain = 0
KCL1 172141Z 21008G13KT 37/14 A2997 RMK A01 T03690136  RH  025%=      5-min Rain = 0
KCL1 172142Z 20007KT 37/13 A2997 RMK A01 T03700132  RH  024%=      5-min Rain = 0
KCL1 172143Z 20007KT 37/13 A2997 RMK A01 T03680133  RH  025%=      5-min Rain = 0
KCL1 172144Z 19010KT 37/13 A2997 RMK A01 T03680131  RH  024%=      5-min Rain = 0
KCL1 172145Z 18012KT 37/13 A2997 RMK A01 T03670131  RH  024%=      5-min Rain = 0
KCL1 172146Z 20010G15KT 37/13 A2997 RMK A01 T03660131  RH  025%=      5-min Rain = 0
KCL1 172147Z 22012G18KT 37/13 A2997 RMK A01 T03680132  RH  024%=      5-min Rain = 0
KCL1 172148Z 22017G22KT 37/13 A2997 RMK A01 T03680128  RH  024%=      5-min Rain = 0
KCL1 172149Z 20012KT 36/13 A2997 RMK A01 T03620127  RH  024%=      5-min Rain = 0
KCL1 172150Z 19011KT 36/13 A2997 RMK A01 T03610126  RH  024%=      5-min Rain = 0
KCL1 172151Z 20011KT 36/13 A2997 RMK A01 T03620128  RH  025%=      5-min Rain = 0
KCL1 172152Z 20012KT 36/12 A2997 RMK A01 T03620124  RH  024%=      5-min Rain = 0
KCL1 172153Z 19009KT 36/13 A2997 RMK A01 T03600125  RH  024%=      5-min Rain = 0
KCL1 172154Z 18008KT 36/13 A2997 RMK A01 T03600128  RH  025%=      5-min Rain = 0
KCL1 172155Z 20009KT 36/13 A2997 RMK A01 T03630127  RH  024%=      5-min Rain = 0
KCL1 172156Z 18009KT 36/13 A2997 RMK A01 T03630127  RH  024%=      5-min Rain = 0
KCL1 172157Z 18012G18KT 37/13 A2997 RMK A01 T03650129  RH  024%=      5-min Rain = 0
KCL1 172158Z 18015KT 37/13 A2997 RMK A01 T03660126  RH  024%=      5-min Rain = 0
KCL1 172159Z 18012KT 36/12 A2997 RMK A01 T03630123  RH  024%=      5-min Rain = 0
KCL1 172200Z 17008KT 36/12 A2997 RMK A01 T03600123  RH  024%=      5-min Rain = 0
KCL1 172201Z 15008KT 36/12 A2996 RMK A01 T03580123  RH  024%=      5-min Rain = 0
KCL1 172202Z 16013G19KT 36/13 A2996 RMK A01 T03590126  RH  025%=      5-min Rain = 0
KCL1 172203Z 16014G21KT 36/12 A2996 RMK A01 T03610122  RH  024%=      5-min Rain = 0
KCL1 172204Z 17013KT 36/12 A2996 RMK A01 T03610122  RH  024%=      5-min Rain = 0
KCL1 172205Z 18012KT 36/12 A2996 RMK A01 T03610121  RH  024%=      5-min Rain = 0
KCL1 172206Z 18012KT 36/12 A2996 RMK A01 T03630122  RH  024%=      5-min Rain = 0
KCL1 172207Z 20012KT 36/12 A2996 RMK A01 T03640119  RH  023%=      5-min Rain = 0
KCL1 172208Z 19011KT 36/12 A2996 RMK A01 T03620117  RH  023%=      5-min Rain = 0
KCL1 172209Z 18011G16KT 36/12 A2996 RMK A01 T03620118  RH  023%=      5-min Rain = 0
KCL1 172210Z 15012G17KT 36/12 A2996 RMK A01 T03620118  RH  023%=      5-min Rain = 0
KCL1 172211Z 16013KT 36/12 A2996 RMK A01 T03620117  RH  023%=      5-min Rain = 0
KCL1 172212Z 16008G13KT 36/12 A2996 RMK A01 T03630118  RH  023%=      5-min Rain = 0
KCL1 172213Z 18010KT 36/12 A2996 RMK A01 T03640116  RH  023%=      5-min Rain = 0
KCL1 172214Z 16011KT 36/12 A2996 RMK A01 T03640117  RH  023%=      5-min Rain = 0
KCL1 172215Z 15010KT 36/12 A2996 RMK A01 T03640116  RH  022%=      5-min Rain = 0
KCL1 172216Z 16007G12KT 37/12 A2996 RMK A01 T03670118  RH  022%=      5-min Rain = 0
KCL1 172217Z 20008KT 37/12 A2996 RMK A01 T03690117  RH  022%=      5-min Rain = 0
KCL1 172218Z 19013KT 37/12 A2996 RMK A01 T03700119  RH  022%=      5-min Rain = 0
KCL1 172219Z 18012G18KT 37/12 A2996 RMK A01 T03700119  RH  022%=      5-min Rain = 0
KCL1 172220Z 22011KT 37/12 A2996 RMK A01 T03690119  RH  022%=      5-min Rain = 0
KCL1 172221Z 20011KT 37/12 A2996 RMK A01 T03670117  RH  022%=      5-min Rain = 0
KCL1 172222Z 19011G18KT 37/12 A2996 RMK A01 T03650119  RH  023%=      5-min Rain = 0
KCL1 172223Z 19017KT 36/12 A2995 RMK A01 T03630118  RH  023%=      5-min Rain = 0
KCL1 172224Z 19014KT 36/12 A2996 RMK A01 T03610118  RH  023%=      5-min Rain = 0
KCL1 172225Z 20013KT 36/12 A2996 RMK A01 T03600118  RH  023%=      5-min Rain = 0
KCL1 172226Z 19011KT 36/12 A2996 RMK A01 T03590118  RH  023%=      5-min Rain = 0
KCL1 172227Z 19013KT 36/12 A2995 RMK A01 T03590119  RH  024%=      5-min Rain = 0
KCL1 172228Z 19012KT 36/12 A2995 RMK A01 T03600117  RH  023%=      5-min Rain = 0
KCL1 172229Z 19010G15KT 36/12 A2995 RMK A01 T03600118  RH  023%=      5-min Rain = 0
KCL1 172230Z 20015G20KT 36/12 A2995 RMK A01 T03600117  RH  023%=      5-min Rain = 0
KCL1 172231Z 20012G19KT 36/12 A2995 RMK A01 T03600117  RH  023%=      5-min Rain = 0
KCL1 172232Z 22015G21KT 36/12 A2995 RMK A01 T03600117  RH  023%=      5-min Rain = 0
KCL1 172233Z 22014G22KT 36/12 A2995 RMK A01 T03600117  RH  023%=      5-min Rain = 0
KCL1 172234Z 19012KT 36/12 A2995 RMK A01 T03600118  RH  023%=      5-min Rain = 0
KCL1 172235Z 18015G21KT 36/12 A2995 RMK A01 T03610119  RH  023%=      5-min Rain = 0
KCL1 172236Z 19014KT 36/12 A2995 RMK A01 T03600116  RH  023%=      5-min Rain = 0
KCL1 172237Z 18012KT 36/12 A2995 RMK A01 T03580116  RH  023%=      5-min Rain = 0
KCL1 172238Z 17012G18KT 36/12 A2995 RMK A01 T03600118  RH  023%=      5-min Rain = 0
KCL1 172239Z 17016G22KT 36/12 A2995 RMK A01 T03610119  RH  023%=      5-min Rain = 0
KCL1 172240Z 19014G19KT 36/12 A2995 RMK A01 T03610118  RH  023%=      5-min Rain = 0
KCL1 172241Z 19014KT 36/12 A2995 RMK A01 T03610117  RH  023%=      5-min Rain = 0
KCL1 172242Z 19015KT 36/12 A2995 RMK A01 T03590115  RH  023%=      5-min Rain = 0
KCL1 172243Z 19012KT 36/12 A2995 RMK A01 T03570116  RH  023%=      5-min Rain = 0
KCL1 172244Z 19009KT 36/12 A2995 RMK A01 T03570115  RH  023%=      5-min Rain = 0
KCL1 172245Z 18011KT 36/12 A2995 RMK A01 T03590117  RH  023%=      5-min Rain = 0
KCL1 172246Z 16014KT 36/12 A2995 RMK A01 T03610119  RH  023%=      5-min Rain = 0
KCL1 172247Z 16014KT 36/12 A2995 RMK A01 T03620115  RH  023%=      5-min Rain = 0
KCL1 172248Z 16012G22KT 36/11 A2995 RMK A01 T03620114  RH  022%=      5-min Rain = 0
KCL1 172249Z 16017KT 36/11 A2995 RMK A01 T03610112  RH  022%=      5-min Rain = 0
KCL1 172250Z 15017KT 36/11 A2995 RMK A01 T03600113  RH  022%=      5-min Rain = 0
KCL1 172251Z 16015KT 36/11 A2995 RMK A01 T03580113  RH  023%=      5-min Rain = 0
KCL1 172252Z 16011KT 36/11 A2995 RMK A01 T03570114  RH  023%=      5-min Rain = 0
KCL1 172253Z 18012KT 36/12 A2995 RMK A01 T03570115  RH  023%=      5-min Rain = 0
KCL1 172254Z 18016KT 36/11 A2995 RMK A01 T03590108  RH  022%=      5-min Rain = 0
KCL1 172255Z 18013KT 36/11 A2995 RMK A01 T03590106  RH  022%=      5-min Rain = 0
KCL1 172256Z 18011KT 36/11 A2995 RMK A01 T03580107  RH  022%=      5-min Rain = 0
KCL1 172257Z 18008KT 36/11 A2995 RMK A01 T03590111  RH  022%=      5-min Rain = 0
KCL1 172258Z 21006KT 36/11 A2995 RMK A01 T03600111  RH  022%=      5-min Rain = 0
KCL1 172259Z 20009G14KT 36/11 A2995 RMK A01 T03630114  RH  022%=      5-min Rain = 0
KCL1 172300Z 21013KT 36/11 A2995 RMK A01 T03640114  RH  022%=      5-min Rain = 0
KCL1 172301Z 19013KT 36/12 A2995 RMK A01 T03630116  RH  022%=      5-min Rain = 0
KCL1 172302Z 19010KT 36/12 A2995 RMK A01 T03600117  RH  023%=      5-min Rain = 0
KCL1 172303Z 23008G14KT 36/12 A2995 RMK A01 T03580119  RH  024%=      5-min Rain = 0
KCL1 172304Z 22014KT 36/12 A2994 RMK A01 T03570119  RH  024%=      5-min Rain = 0
KCL1 172305Z 21011G17KT 36/12 A2995 RMK A01 T03570120  RH  024%=      5-min Rain = 0
KCL1 172306Z 22009KT 36/12 A2995 RMK A01 T03570122  RH  024%=      5-min Rain = 0
KCL1 172307Z 20011KT 36/12 A2995 RMK A01 T03570124  RH  025%=      5-min Rain = 0
KCL1 172308Z 19012KT 36/13 A2995 RMK A01 T03590125  RH  024%=      5-min Rain = 0
KCL1 172309Z 19010KT 36/12 A2994 RMK A01 T03600124  RH  024%=      5-min Rain = 0
KCL1 172310Z 21008KT 36/13 A2994 RMK A01 T03600125  RH  024%=      5-min Rain = 0
KCL1 172311Z 21011G16KT 36/13 A2994 RMK A01 T03620126  RH  024%=      5-min Rain = 0
KCL1 172312Z 22010G15KT 36/13 A2994 RMK A01 T03620125  RH  024%=      5-min Rain = 0
KCL1 172313Z 19010G16KT 36/13 A2994 RMK A01 T03610127  RH  025%=      5-min Rain = 0
KCL1 172314Z 20015G24KT 36/13 A2994 RMK A01 T03610127  RH  025%=      5-min Rain = 0
KCL1 172315Z 20015KT 36/13 A2994 RMK A01 T03580126  RH  025%=      5-min Rain = 0
KCL1 172316Z 18013KT 36/13 A2994 RMK A01 T03560126  RH  025%=      5-min Rain = 0
KCL1 172317Z 18011KT 35/13 A2994 RMK A01 T03540128  RH  026%=      5-min Rain = 0
KCL1 172318Z 19011KT 36/13 A2994 RMK A01 T03550128  RH  025%=      5-min Rain = 0
KCL1 172319Z 18009KT 36/13 A2994 RMK A01 T03550129  RH  026%=      5-min Rain = 0
KCL1 172320Z 18009KT 36/13 A2994 RMK A01 T03560130  RH  026%=      5-min Rain = 0
KCL1 172321Z 18007KT 36/13 A2994 RMK A01 T03570131  RH  026%=      5-min Rain = 0
KCL1 172322Z 19007G12KT 36/13 A2994 RMK A01 T03580132  RH  026%=      5-min Rain = 0
KCL1 172323Z 19009KT 36/13 A2994 RMK A01 T03590131  RH  026%=      5-min Rain = 0
KCL1 172324Z 18009KT 36/13 A2994 RMK A01 T03590131  RH  025%=      5-min Rain = 0
KCL1 172325Z 18007KT 36/13 A2994 RMK A01 T03600132  RH  025%=      5-min Rain = 0
KCL1 172326Z 17009KT 36/13 A2994 RMK A01 T03590132  RH  026%=      5-min Rain = 0
KCL1 172327Z 16010G15KT 36/13 A2994 RMK A01 T03600133  RH  026%=      5-min Rain = 0
KCL1 172328Z 17014KT 36/13 A2994 RMK A01 T03590129  RH  025%=      5-min Rain = 0
KCL1 172329Z 18011KT 36/13 A2994 RMK A01 T03580129  RH  025%=      5-min Rain = 0
KCL1 172330Z 18008G13KT 36/13 A2994 RMK A01 T03570127  RH  025%=      5-min Rain = 0
KCL1 172331Z 16012KT 36/13 A2994 RMK A01 T03570126  RH  025%=      5-min Rain = 0
KCL1 172332Z 18009KT 36/13 A2994 RMK A01 T03560126  RH  025%=      5-min Rain = 0
KCL1 172333Z 18008KT 36/13 A2994 RMK A01 T03550128  RH  025%=      5-min Rain = 0
KCL1 172334Z 19012KT 36/13 A2994 RMK A01 T03560127  RH  025%=      5-min Rain = 0
KCL1 172335Z 20010KT 36/13 A2994 RMK A01 T03560126  RH  025%=      5-min Rain = 0
KCL1 172336Z 20012KT 36/13 A2994 RMK A01 T03560126  RH  025%=      5-min Rain = 0
KCL1 172337Z 20010KT 36/12 A2994 RMK A01 T03550124  RH  025%=      5-min Rain = 0
KCL1 172338Z 20013KT 35/12 A2994 RMK A01 T03530122  RH  025%=      5-min Rain = 0
KCL1 172339Z 20013KT 35/12 A2994 RMK A01 T03530119  RH  024%=      5-min Rain = 0
KCL1 172340Z 18012KT 35/12 A2994 RMK A01 T03520119  RH  024%=      5-min Rain = 0
KCL1 172341Z 18010KT 35/12 A2994 RMK A01 T03520121  RH  025%=      5-min Rain = 0
KCL1 172342Z 16010KT 35/12 A2994 RMK A01 T03540120  RH  024%=      5-min Rain = 0
KCL1 172343Z 18011G16KT 35/12 A2994 RMK A01 T03540117  RH  024%=      5-min Rain = 0
KCL1 172344Z 17012KT 35/12 A2994 RMK A01 T03530118  RH  024%=      5-min Rain = 0
KCL1 172345Z 17012G17KT 35/12 A2994 RMK A01 T03530116  RH  024%=      5-min Rain = 0
KCL1 172346Z 17011KT 35/12 A2994 RMK A01 T03520116  RH  024%=      5-min Rain = 0
KCL1 172347Z 17013KT 35/11 A2994 RMK A01 T03520113  RH  024%=      5-min Rain = 0
KCL1 172348Z 16014KT 35/11 A2994 RMK A01 T03520109  RH  023%=      5-min Rain = 0
KCL1 172349Z 16013KT 35/10 A2994 RMK A01 T03500104  RH  022%=      5-min Rain = 0
KCL1 172350Z 17010KT 35/11 A2994 RMK A01 T03490106  RH  023%=      5-min Rain = 0
KCL1 172351Z 17012KT 35/11 A2994 RMK A01 T03490108  RH  023%=      5-min Rain = 0
KCL1 172352Z 18012KT 35/11 A2994 RMK A01 T03490108  RH  023%=      5-min Rain = 0
KCL1 172353Z 18015KT 35/11 A2994 RMK A01 T03490108  RH  023%=      5-min Rain = 0
KCL1 172354Z 17010KT 35/11 A2994 RMK A01 T03480107  RH  023%=      5-min Rain = 0
KCL1 172355Z 18011KT 35/11 A2994 RMK A01 T03480109  RH  023%=      5-min Rain = 0
KCL1 172356Z 18010KT 35/11 A2994 RMK A01 T03490108  RH  023%=      5-min Rain = 0
KCL1 172357Z 18009KT 35/11 A2994 RMK A01 T03500109  RH  023%=      5-min Rain = 0
KCL1 172358Z 17012KT 35/11 A2994 RMK A01 T03520107  RH  023%=      5-min Rain = 0
KCL1 172359Z 17011KT 35/11 A2994 RMK A01 T03520108  RH  023%=      5-min Rain = 0
KCL1 180000Z 17010KT 35/11 A2994 RMK A01 T03520111  RH  023%=      5-min Rain = 0
KCL1 180001Z 16012KT 35/11 A2994 RMK A01 T03520114  RH  024%=      5-min Rain = 0
KCL1 180002Z 17013KT 35/12 A2994 RMK A01 T03520115  RH  024%=      5-min Rain = 0
KCL1 180003Z 17011G16KT 35/12 A2994 RMK A01 T03500117  RH  024%=      5-min Rain = 0
KCL1 180004Z 17010KT 35/12 A2994 RMK A01 T03500119  RH  025%=      5-min Rain = 0
KCL1 180005Z 17010KT 35/12 A2994 RMK A01 T03500121  RH  025%=      5-min Rain = 0
KCL1 180006Z 17015G22KT 35/12 A2993 RMK A01 T03500124  RH  025%=      5-min Rain = 0
KCL1 180007Z 17015KT 35/13 A2993 RMK A01 T03490125  RH  026%=      5-min Rain = 0
KCL1 180008Z 19013KT 35/13 A2994 RMK A01 T03490126  RH  026%=      5-min Rain = 0
KCL1 180009Z 17013KT 35/13 A2994 RMK A01 T03490125  RH  026%=      5-min Rain = 0
KCL1 180010Z 18012KT 35/13 A2993 RMK A01 T03490125  RH  026%=      5-min Rain = 0
KCL1 180011Z 18013KT 35/12 A2993 RMK A01 T03490123  RH  026%=      5-min Rain = 0
KCL1 180012Z 18015KT 35/12 A2993 RMK A01 T03490123  RH  025%=      5-min Rain = 0
KCL1 180013Z 18013KT 35/12 A2993 RMK A01 T03490122  RH  025%=      5-min Rain = 0
KCL1 180014Z 18015KT 35/12 A2993 RMK A01 T03490122  RH  025%=      5-min Rain = 0
KCL1 180015Z 17012KT 35/12 A2993 RMK A01 T03490123  RH  026%=      5-min Rain = 0
KCL1 180016Z 19007KT 35/13 A2993 RMK A01 T03490125  RH  026%=      5-min Rain = 0
KCL1 180017Z 17008KT 35/13 A2993 RMK A01 T03500126  RH  026%=      5-min Rain = 0
KCL1 180018Z 19013G18KT 35/13 A2993 RMK A01 T03520126  RH  026%=      5-min Rain = 0
KCL1 180019Z 16010KT 35/13 A2993 RMK A01 T03510125  RH  026%=      5-min Rain = 0
KCL1 180020Z 17011KT 35/13 A2993 RMK A01 T03500126  RH  026%=      5-min Rain = 0
KCL1 180021Z 17014KT 35/13 A2993 RMK A01 T03490126  RH  026%=      5-min Rain = 0
KCL1 180022Z 17014KT 35/12 A2993 RMK A01 T03490124  RH  026%=      5-min Rain = 0
KCL1 180023Z 17013KT 35/12 A2993 RMK A01 T03470123  RH  026%=      5-min Rain = 0
KCL1 180024Z 17013KT 35/12 A2993 RMK A01 T03460123  RH  026%=      5-min Rain = 0
KCL1 180025Z 18011KT 35/12 A2993 RMK A01 T03460122  RH  026%=      5-min Rain = 0
KCL1 180026Z 17010KT 35/12 A2993 RMK A01 T03470123  RH  026%=      5-min Rain = 0
KCL1 180027Z 17012KT 35/12 A2993 RMK A01 T03480122  RH  026%=      5-min Rain = 0
KCL1 180028Z 17015KT 35/12 A2993 RMK A01 T03480121  RH  025%=      5-min Rain = 0
KCL1 180029Z 16014KT 35/12 A2993 RMK A01 T03470121  RH  026%=      5-min Rain = 0
KCL1 180030Z 17012KT 35/12 A2993 RMK A01 T03460121  RH  026%=      5-min Rain = 0
KCL1 180031Z 18015G20KT 35/12 A2993 RMK A01 T03460124  RH  026%=      5-min Rain = 0
KCL1 180032Z 17015KT 35/13 A2993 RMK A01 T03460125  RH  026%=      5-min Rain = 0
KCL1 180033Z 18012KT 35/13 A2993 RMK A01 T03460127  RH  027%=      5-min Rain = 0
KCL1 180034Z 18012KT 35/13 A2993 RMK A01 T03460127  RH  027%=      5-min Rain = 0
KCL1 180035Z 18013KT 35/13 A2993 RMK A01 T03460128  RH  027%=      5-min Rain = 0
KCL1 180036Z 16013G19KT 35/13 A2993 RMK A01 T03450129  RH  027%=      5-min Rain = 0
KCL1 180037Z 18014KT 35/13 A2993 RMK A01 T03450130  RH  027%=      5-min Rain = 0
KCL1 180038Z 18012KT 35/13 A2993 RMK A01 T03450129  RH  027%=      5-min Rain = 0
KCL1 180039Z 18013KT 34/13 A2993 RMK A01 T03440129  RH  027%=      5-min Rain = 0
KCL1 180040Z 17014KT 34/13 A2993 RMK A01 T03440128  RH  027%=      5-min Rain = 0
KCL1 180041Z 18012KT 34/13 A2993 RMK A01 T03440127  RH  027%=      5-min Rain = 0
KCL1 180042Z 18011KT 34/13 A2993 RMK A01 T03440127  RH  027%=      5-min Rain = 0
KCL1 180043Z 18009KT 35/13 A2993 RMK A01 T03450129  RH  027%=      5-min Rain = 0
KCL1 180044Z 18011G16KT 34/13 A2993 RMK A01 T03440129  RH  027%=      5-min Rain = 0
KCL1 180045Z 17012KT 35/13 A2993 RMK A01 T03450127  RH  027%=      5-min Rain = 0
KCL1 180046Z 18012KT 34/13 A2993 RMK A01 T03440127  RH  027%=      5-min Rain = 0
KCL1 180047Z 18010KT 34/13 A2993 RMK A01 T03440125  RH  027%=      5-min Rain = 0
KCL1 180048Z 20010G15KT 34/13 A2993 RMK A01 T03430126  RH  027%=      5-min Rain = 0
KCL1 180049Z 18007KT 34/13 A2993 RMK A01 T03440127  RH  027%=      5-min Rain = 0
KCL1 180050Z 17009KT 35/13 A2993 RMK A01 T03450128  RH  027%=      5-min Rain = 0
KCL1 180051Z 18010KT 35/13 A2993 RMK A01 T03450128  RH  027%=      5-min Rain = 0
KCL1 180052Z 17013KT 34/13 A2993 RMK A01 T03440130  RH  028%=      5-min Rain = 0
KCL1 180053Z 17011KT 34/13 A2993 RMK A01 T03430131  RH  028%=      5-min Rain = 0
KCL1 180054Z 18008KT 34/13 A2993 RMK A01 T03420131  RH  028%=      5-min Rain = 0
KCL1 180055Z 18012KT 34/13 A2993 RMK A01 T03420132  RH  028%=      5-min Rain = 0
KCL1 180056Z 18010KT 34/13 A2993 RMK A01 T03420132  RH  028%=      5-min Rain = 0
KCL1 180057Z 17012KT 34/13 A2993 RMK A01 T03410131  RH  028%=      5-min Rain = 0
KCL1 180058Z 18009KT 34/13 A2993 RMK A01 T03410131  RH  028%=      5-min Rain = 0
KCL1 180059Z 17009KT 34/13 A2993 RMK A01 T03400130  RH  028%=      5-min Rain = 0
KCL1 180100Z 18010G15KT 34/13 A2993 RMK A01 T03400130  RH  028%=      5-min Rain = 0
KCL1 180101Z 17011KT 34/13 A2993 RMK A01 T03400129  RH  028%=      5-min Rain = 0
KCL1 180102Z 18013KT 34/13 A2993 RMK A01 T03400129  RH  028%=      5-min Rain = 0
KCL1 180103Z 18010KT 34/13 A2993 RMK A01 T03390128  RH  028%=      5-min Rain = 0
KCL1 180104Z 20012KT 34/13 A2993 RMK A01 T03400128  RH  028%=      5-min Rain = 0
KCL1 180105Z 19010KT 34/13 A2993 RMK A01 T03400127  RH  028%=      5-min Rain = 0
KCL1 180106Z 18008KT 34/13 A2994 RMK A01 T03400128  RH  028%=      5-min Rain = 0
KCL1 180107Z 19012G17KT 34/13 A2993 RMK A01 T03410130  RH  028%=      5-min Rain = 0
KCL1 180108Z 19012G17KT 34/13 A2993 RMK A01 T03400131  RH  028%=      5-min Rain = 0
KCL1 180109Z 17010KT 34/13 A2994 RMK A01 T03390133  RH  029%=      5-min Rain = 0
KCL1 180110Z 17017G23KT 34/13 A2993 RMK A01 T03380134  RH  029%=      5-min Rain = 0
KCL1 180111Z 17014KT 34/14 A2993 RMK A01 T03370136  RH  030%=      5-min Rain = 0
KCL1 180112Z 17013KT 34/14 A2993 RMK A01 T03350136  RH  030%=      5-min Rain = 0
KCL1 180113Z 18010KT 34/14 A2993 RMK A01 T03350137  RH  030%=      5-min Rain = 0
KCL1 180114Z 18011KT 33/14 A2993 RMK A01 T03340137  RH  030%=      5-min Rain = 0
KCL1 180115Z 17012G17KT 34/14 A2993 RMK A01 T03350137  RH  030%=      5-min Rain = 0
KCL1 180116Z 17012KT 33/14 A2993 RMK A01 T03340137  RH  030%=      5-min Rain = 0
KCL1 180117Z 18009KT 33/14 A2993 RMK A01 T03340137  RH  030%=      5-min Rain = 0
KCL1 180118Z 17011G18KT 33/14 A2993 RMK A01 T03340138  RH  031%=      5-min Rain = 0
KCL1 180119Z 16012KT 33/14 A2993 RMK A01 T03330137  RH  031%=      5-min Rain = 0
KCL1 180120Z 17012KT 33/14 A2993 RMK A01 T03330136  RH  030%=      5-min Rain = 0
KCL1 180121Z 17012KT 33/14 A2993 RMK A01 T03330136  RH  030%=      5-min Rain = 0
KCL1 180122Z 17012KT 33/14 A2993 RMK A01 T03320136  RH  030%=      5-min Rain = 0
KCL1 180123Z 17013KT 33/14 A2993 RMK A01 T03320135  RH  030%=      5-min Rain = 0
KCL1 180124Z 17010KT 33/14 A2993 RMK A01 T03320136  RH  031%=      5-min Rain = 0
KCL1 180125Z 18013KT 33/14 A2993 RMK A01 T03310136  RH  031%=      5-min Rain = 0
KCL1 180126Z 17011KT 33/14 A2993 RMK A01 T03310135  RH  031%=      5-min Rain = 0
KCL1 180127Z 17011KT 33/14 A2993 RMK A01 T03310136  RH  031%=      5-min Rain = 0
KCL1 180128Z 17012KT 33/14 A2993 RMK A01 T03310136  RH  031%=      5-min Rain = 0
KCL1 180129Z 17011KT 33/14 A2993 RMK A01 T03300135  RH  031%=      5-min Rain = 0
KCL1 180130Z 17009KT 33/14 A2993 RMK A01 T03300135  RH  031%=      5-min Rain = 0
KCL1 180131Z 17012KT 33/14 A2993 RMK A01 T03300136  RH  031%=      5-min Rain = 0
KCL1 180132Z 17012KT 33/14 A2993 RMK A01 T03290135  RH  031%=      5-min Rain = 0
KCL1 180133Z 17012KT 33/14 A2993 RMK A01 T03290135  RH  031%=      5-min Rain = 0
KCL1 180134Z 17009KT 33/14 A2993 RMK A01 T03290135  RH  031%=      5-min Rain = 0
KCL1 180135Z 18009KT 33/14 A2993 RMK A01 T03290136  RH  031%=      5-min Rain = 0
KCL1 180136Z 18010KT 33/14 A2993 RMK A01 T03280135  RH  031%=      5-min Rain = 0
KCL1 180137Z 17011KT 33/14 A2993 RMK A01 T03270135  RH  031%=      5-min Rain = 0
KCL1 180138Z 17011KT 33/14 A2993 RMK A01 T03270135  RH  031%=      5-min Rain = 0
KCL1 180139Z 17011KT 33/14 A2993 RMK A01 T03270135  RH  031%=      5-min Rain = 0
KCL1 180140Z 17010KT 33/13 A2993 RMK A01 T03260134  RH  031%=      5-min Rain = 0
KCL1 180141Z 17011KT 33/13 A2993 RMK A01 T03260134  RH  031%=      5-min Rain = 0
KCL1 180142Z 17013KT 33/13 A2993 RMK A01 T03260134  RH  031%=      5-min Rain = 0
KCL1 180143Z 17010KT 33/13 A2993 RMK A01 T03260134  RH  031%=      5-min Rain = 0
KCL1 180144Z 17011KT 33/13 A2993 RMK A01 T03250134  RH  031%=      5-min Rain = 0
KCL1 180145Z 17010KT 33/13 A2993 RMK A01 T03250134  RH  031%=      5-min Rain = 0
KCL1 180146Z 17011KT 33/13 A2993 RMK A01 T03250134  RH  031%=      5-min Rain = 0
KCL1 180147Z 18014G19KT 32/13 A2993 RMK A01 T03240134  RH  032%=      5-min Rain = 0
KCL1 180148Z 18013G18KT 32/13 A2993 RMK A01 T03230133  RH  031%=      5-min Rain = 0
KCL1 180149Z 17014KT 32/13 A2993 RMK A01 T03240133  RH  031%=      5-min Rain = 0
KCL1 180150Z 17013KT 32/13 A2993 RMK A01 T03240133  RH  031%=      5-min Rain = 0
KCL1 180151Z 17013KT 32/13 A2993 RMK A01 T03240133  RH  031%=      5-min Rain = 0
KCL1 180152Z 17014KT 32/13 A2993 RMK A01 T03240133  RH  031%=      5-min Rain = 0
KCL1 180153Z 17014KT 32/13 A2993 RMK A01 T03240133  RH  031%=      5-min Rain = 0
KCL1 180154Z 17010KT 32/13 A2993 RMK A01 T03240133  RH  032%=      5-min Rain = 0
KCL1 180155Z 17013KT 32/13 A2993 RMK A01 T03230133  RH  032%=      5-min Rain = 0
KCL1 180156Z 17013KT 32/13 A2993 RMK A01 T03220134  RH  032%=      5-min Rain = 0
KCL1 180157Z 17013KT 32/13 A2994 RMK A01 T03220133  RH  032%=      5-min Rain = 0
KCL1 180158Z 18013KT 32/13 A2994 RMK A01 T03210133  RH  032%=      5-min Rain = 0
KCL1 180159Z 17015KT 32/13 A2994 RMK A01 T03220133  RH  032%=      5-min Rain = 0
KCL1 180200Z 17012KT 32/13 A2994 RMK A01 T03210133  RH  032%=      5-min Rain = 0
KCL1 180201Z 17013KT 32/13 A2994 RMK A01 T03220133  RH  032%=      5-min Rain = 0
KCL1 180202Z 17013KT 32/13 A2994 RMK A01 T03220134  RH  032%=      5-min Rain = 0
KCL1 180203Z 17012G17KT 32/13 A2994 RMK A01 T03220134  RH  032%=      5-min Rain = 0
KCL1 180204Z 17011KT 32/13 A2994 RMK A01 T03210134  RH  032%=      5-min Rain = 0
KCL1 180205Z 17010KT 32/13 A2994 RMK A01 T03200134  RH  032%=      5-min Rain = 0
KCL1 180206Z 18011KT 32/13 A2994 RMK A01 T03190134  RH  032%=      5-min Rain = 0
KCL1 180207Z 18014KT 32/13 A2994 RMK A01 T03190134  RH  032%=      5-min Rain = 0
KCL1 180208Z 17015KT 32/13 A2994 RMK A01 T03190133  RH  032%=      5-min Rain = 0
KCL1 180209Z 18012KT 32/13 A2994 RMK A01 T03190133  RH  032%=      5-min Rain = 0
KCL1 180210Z 18011G17KT 32/13 A2994 RMK A01 T03190133  RH  032%=      5-min Rain = 0
KCL1 180211Z 17012KT 32/13 A2994 RMK A01 T03190133  RH  032%=      5-min Rain = 0
KCL1 180212Z 18012KT 32/13 A2994 RMK A01 T03190133  RH  032%=      5-min Rain = 0
KCL1 180213Z 18012KT 32/13 A2994 RMK A01 T03190133  RH  032%=      5-min Rain = 0
KCL1 180214Z 17014KT 32/13 A2994 RMK A01 T03180133  RH  032%=      5-min Rain = 0
KCL1 180215Z 17011G16KT 32/13 A2994 RMK A01 T03180133  RH  033%=      5-min Rain = 0
KCL1 180216Z 17011KT 32/13 A2994 RMK A01 T03180133  RH  033%=      5-min Rain = 0
KCL1 180217Z 17011G16KT 32/13 A2994 RMK A01 T03170133  RH  033%=      5-min Rain = 0
KCL1 180218Z 17012KT 32/13 A2994 RMK A01 T03170134  RH  033%=      5-min Rain = 0
KCL1 180219Z 17011KT 32/13 A2994 RMK A01 T03160134  RH  033%=      5-min Rain = 0
KCL1 180220Z 17014KT 32/14 A2994 RMK A01 T03170136  RH  033%=      5-min Rain = 0
KCL1 180221Z 18013KT 32/14 A2994 RMK A01 T03160136  RH  033%=      5-min Rain = 0
KCL1 180222Z 17011G17KT 32/14 A2994 RMK A01 T03160137  RH  034%=      5-min Rain = 0
KCL1 180223Z 17016KT 32/14 A2994 RMK A01 T03160137  RH  034%=      5-min Rain = 0
KCL1 180224Z 18015G20KT 32/14 A2994 RMK A01 T03160138  RH  034%=      5-min Rain = 0
KCL1 180225Z 18013KT 32/14 A2994 RMK A01 T03160138  RH  034%=      5-min Rain = 0
KCL1 180226Z 17011KT 32/14 A2994 RMK A01 T03160138  RH  034%=      5-min Rain = 0
KCL1 180227Z 17011G16KT 32/14 A2994 RMK A01 T03150139  RH  034%=      5-min Rain = 0
KCL1 180228Z 17012KT 32/14 A2994 RMK A01 T03150140  RH  035%=      5-min Rain = 0
KCL1 180229Z 17009KT 31/14 A2994 RMK A01 T03140140  RH  035%=      5-min Rain = 0
KCL1 180230Z 18013KT 31/14 A2994 RMK A01 T03140140  RH  035%=      5-min Rain = 0
KCL1 180231Z 18012KT 31/14 A2994 RMK A01 T03140141  RH  035%=      5-min Rain = 0
KCL1 180232Z 18011KT 31/14 A2994 RMK A01 T03140142  RH  035%=      5-min Rain = 0
KCL1 180233Z 18010KT 31/14 A2995 RMK A01 T03130142  RH  035%=      5-min Rain = 0
KCL1 180234Z 18009KT 31/14 A2995 RMK A01 T03120142  RH  036%=      5-min Rain = 0
KCL1 180235Z 17012KT 31/14 A2994 RMK A01 T03120142  RH  036%=      5-min Rain = 0
KCL1 180236Z 18011KT 31/14 A2995 RMK A01 T03120143  RH  036%=      5-min Rain = 0
KCL1 180237Z 17011KT 31/14 A2995 RMK A01 T03110143  RH  036%=      5-min Rain = 0
KCL1 180238Z 18009KT 31/14 A2995 RMK A01 T03110143  RH  036%=      5-min Rain = 0
KCL1 180239Z 17011KT 31/14 A2995 RMK A01 T03110144  RH  036%=      5-min Rain = 0
KCL1 180240Z 18011KT 31/14 A2995 RMK A01 T03100144  RH  036%=      5-min Rain = 0
KCL1 180241Z 18011KT 31/14 A2995 RMK A01 T03100144  RH  037%=      5-min Rain = 0
KCL1 180242Z 17009KT 31/15 A2995 RMK A01 T03100145  RH  037%=      5-min Rain = 0
KCL1 180243Z 18010KT 31/15 A2995 RMK A01 T03090145  RH  037%=      5-min Rain = 0
KCL1 180244Z 17010G15KT 31/15 A2995 RMK A01 T03090145  RH  037%=      5-min Rain = 0
KCL1 180245Z 17012G18KT 31/15 A2995 RMK A01 T03090146  RH  037%=      5-min Rain = 0
KCL1 180246Z 17010KT 31/15 A2995 RMK A01 T03090147  RH  037%=      5-min Rain = 0
KCL1 180247Z 17012KT 31/15 A2995 RMK A01 T03080146  RH  037%=      5-min Rain = 0
KCL1 180248Z 18008KT 31/15 A2995 RMK A01 T03080147  RH  038%=      5-min Rain = 0
KCL1 180249Z 16007G14KT 31/15 A2995 RMK A01 T03080147  RH  038%=      5-min Rain = 0
KCL1 180250Z 16010KT 31/15 A2995 RMK A01 T03070147  RH  038%=      5-min Rain = 0
KCL1 180251Z 17012G18KT 31/15 A2995 RMK A01 T03060147  RH  038%=      5-min Rain = 0
KCL1 180252Z 16009KT 31/15 A2995 RMK A01 T03060148  RH  038%=      5-min Rain = 0
KCL1 180253Z 16011KT 31/15 A2995 RMK A01 T03060148  RH  038%=      5-min Rain = 0
KCL1 180254Z 17009KT 31/15 A2995 RMK A01 T03060148  RH  038%=      5-min Rain = 0
KCL1 180255Z 16012KT 31/15 A2995 RMK A01 T03070149  RH  038%=      5-min Rain = 0
KCL1 180256Z 17011KT 31/15 A2995 RMK A01 T03070149  RH  038%=      5-min Rain = 0
KCL1 180257Z 17010KT 31/15 A2995 RMK A01 T03060149  RH  038%=      5-min Rain = 0
KCL1 180258Z 16010KT 31/15 A2995 RMK A01 T03070149  RH  038%=      5-min Rain = 0
KCL1 180259Z 16011G18KT 31/15 A2995 RMK A01 T03070149  RH  038%=      5-min Rain = 0
KCL1 180300Z 17012G19KT 31/15 A2995 RMK A01 T03060149  RH  039%=      5-min Rain = 0
KCL1 180301Z 17012KT 31/15 A2995 RMK A01 T03070149  RH  038%=      5-min Rain = 0
KCL1 180302Z 17010G15KT 31/15 A2995 RMK A01 T03080150  RH  038%=      5-min Rain = 0
KCL1 180303Z 17013KT 31/15 A2995 RMK A01 T03070150  RH  038%=      5-min Rain = 0
KCL1 180304Z 17010KT 31/15 A2996 RMK A01 T03070150  RH  038%=      5-min Rain = 0
KCL1 180305Z 16011KT 31/15 A2996 RMK A01 T03070150  RH  039%=      5-min Rain = 0
KCL1 180306Z 17012G17KT 31/15 A2996 RMK A01 T03060150  RH  039%=      5-min Rain = 0
KCL1 180307Z 17010KT 31/15 A2996 RMK A01 T03060150  RH  039%=      5-min Rain = 0
KCL1 180308Z 18009KT 31/15 A2996 RMK A01 T03060150  RH  039%=      5-min Rain = 0
KCL1 180309Z 17010KT 31/15 A2996 RMK A01 T03060150  RH  039%=      5-min Rain = 0
KCL1 180310Z 17007KT 31/15 A2996 RMK A01 T03060150  RH  039%=      5-min Rain = 0
KCL1 180311Z 16011G17KT 31/15 A2996 RMK A01 T03050150  RH  039%=      5-min Rain = 0
KCL1 180312Z 17009KT 31/15 A2996 RMK A01 T03050150  RH  039%=      5-min Rain = 0
KCL1 180313Z 17014KT 31/15 A2996 RMK A01 T03050149  RH  039%=      5-min Rain = 0
KCL1 180314Z 17011KT 31/15 A2996 RMK A01 T03050149  RH  039%=      5-min Rain = 0
KCL1 180315Z 16013G18KT 31/15 A2996 RMK A01 T03060149  RH  039%=      5-min Rain = 0
KCL1 180316Z 17013KT 31/15 A2996 RMK A01 T03060149  RH  039%=      5-min Rain = 0
KCL1 180317Z 17012KT 31/15 A2996 RMK A01 T03050149  RH  039%=      5-min Rain = 0
KCL1 180318Z 17013KT 31/15 A2996 RMK A01 T03050149  RH  039%=      5-min Rain = 0
KCL1 180319Z 17008KT 31/15 A2996 RMK A01 T03050149  RH  039%=      5-min Rain = 0
KCL1 180320Z 17010G16KT 31/15 A2996 RMK A01 T03050149  RH  039%=      5-min Rain = 0
KCL1 180321Z 17011KT 30/15 A2996 RMK A01 T03040148  RH  039%=      5-min Rain = 0
KCL1 180322Z 17012KT 30/15 A2996 RMK A01 T03030148  RH  039%=      5-min Rain = 0
KCL1 180323Z 17013G18KT 30/15 A2996 RMK A01 T03030148  RH  039%=      5-min Rain = 0
KCL1 180324Z 16012KT 30/15 A2996 RMK A01 T03030148  RH  039%=      5-min Rain = 0
KCL1 180325Z 16012KT 30/15 A2996 RMK A01 T03030148  RH  039%=      5-min Rain = 0
KCL1 180326Z 17014KT 30/15 A2996 RMK A01 T03030147  RH  039%=      5-min Rain = 0
KCL1 180327Z 17011KT 30/15 A2996 RMK A01 T03030147  RH  039%=      5-min Rain = 0
KCL1 180328Z 18009KT 30/15 A2997 RMK A01 T03030148  RH  039%=      5-min Rain = 0
KCL1 180329Z 17010KT 30/15 A2997 RMK A01 T03030148  RH  039%=      5-min Rain = 0
KCL1 180330Z 16011G17KT 30/15 A2997 RMK A01 T03020147  RH  039%=      5-min Rain = 0
KCL1 180331Z 17008KT 30/15 A2997 RMK A01 T03020147  RH  039%=      5-min Rain = 0
KCL1 180332Z 17010KT 30/15 A2997 RMK A01 T03010147  RH  039%=      5-min Rain = 0
KCL1 180333Z 17009KT 30/15 A2997 RMK A01 T03010147  RH  039%=      5-min Rain = 0
KCL1 180334Z 18008KT 30/15 A2997 RMK A01 T03010147  RH  039%=      5-min Rain = 0
KCL1 180335Z 17009KT 30/15 A2997 RMK A01 T03000147  RH  039%=      5-min Rain = 0
KCL1 180336Z 17010KT 30/15 A2997 RMK A01 T03000147  RH  039%=      5-min Rain = 0
KCL1 180337Z 18010KT 30/15 A2997 RMK A01 T02990146  RH  039%=      5-min Rain = 0
KCL1 180338Z 18009KT 30/15 A2997 RMK A01 T02990146  RH  039%=      5-min Rain = 0
KCL1 180339Z 17009KT 30/15 A2997 RMK A01 T02990146  RH  039%=      5-min Rain = 0
KCL1 180340Z 17013KT 30/15 A2997 RMK A01 T02990146  RH  039%=      5-min Rain = 0
KCL1 180341Z 17010KT 30/15 A2997 RMK A01 T02990145  RH  039%=      5-min Rain = 0
KCL1 180342Z 16008KT 30/15 A2997 RMK A01 T02990145  RH  039%=      5-min Rain = 0
KCL1 180343Z 16010KT 30/15 A2997 RMK A01 T03000145  RH  039%=      5-min Rain = 0
KCL1 180344Z 16012G17KT 30/15 A2997 RMK A01 T02990145  RH  039%=      5-min Rain = 0
KCL1 180345Z 18009KT 30/14 A2997 RMK A01 T02990144  RH  039%=      5-min Rain = 0
KCL1 180346Z 16011KT 30/15 A2997 RMK A01 T02990145  RH  039%=      5-min Rain = 0
KCL1 180347Z 16014KT 30/15 A2997 RMK A01 T02990145  RH  039%=      5-min Rain = 0
KCL1 180348Z 17011KT 30/14 A2997 RMK A01 T02990144  RH  039%=      5-min Rain = 0
KCL1 180349Z 18010KT 30/14 A2997 RMK A01 T02990144  RH  039%=      5-min Rain = 0
KCL1 180350Z 17010KT 30/14 A2997 RMK A01 T02990144  RH  039%=      5-min Rain = 0
KCL1 180351Z 17010KT 30/14 A2997 RMK A01 T02990144  RH  039%=      5-min Rain = 0
KCL1 180352Z 16015G21KT 30/14 A2997 RMK A01 T02980144  RH  039%=      5-min Rain = 0
KCL1 180353Z 16014KT 30/14 A2997 RMK A01 T02980143  RH  039%=      5-min Rain = 0
KCL1 180354Z 17010KT 30/14 A2997 RMK A01 T02980143  RH  039%=      5-min Rain = 0
KCL1 180355Z 18010KT 30/14 A2997 RMK A01 T02980143  RH  039%=      5-min Rain = 0
KCL1 180356Z 17011KT 30/14 A2997 RMK A01 T02980143  RH  039%=      5-min Rain = 0
KCL1 180357Z 17008KT 30/14 A2997 RMK A01 T02970143  RH  039%=      5-min Rain = 0
KCL1 180358Z 17009KT 30/14 A2997 RMK A01 T02970143  RH  039%=      5-min Rain = 0
KCL1 180359Z 17009KT 30/14 A2997 RMK A01 T02960143  RH  039%=      5-min Rain = 0
KCL1 180400Z 16012KT 30/14 A2997 RMK A01 T02960143  RH  039%=      5-min Rain = 0
KCL1 180401Z 16009KT 30/14 A2997 RMK A01 T02960143  RH  039%=      5-min Rain = 0
KCL1 180402Z 17010KT 30/14 A2997 RMK A01 T02960143  RH  039%=      5-min Rain = 0
KCL1 180403Z 17012KT 30/14 A2997 RMK A01 T02960143  RH  039%=      5-min Rain = 0
KCL1 180404Z 17012G17KT 30/14 A2997 RMK A01 T02950143  RH  039%=      5-min Rain = 0
KCL1 180405Z 17013KT 30/14 A2998 RMK A01 T02960142  RH  039%=      5-min Rain = 0
KCL1 180406Z 18011KT 30/14 A2998 RMK A01 T02950142  RH  039%=      5-min Rain = 0
KCL1 180407Z 17010KT 30/14 A2998 RMK A01 T02960142  RH  039%=      5-min Rain = 0
KCL1 180408Z 18009KT 30/14 A2998 RMK A01 T02950142  RH  039%=      5-min Rain = 0
KCL1 180409Z 17014KT 30/14 A2998 RMK A01 T02960142  RH  039%=      5-min Rain = 0
KCL1 180410Z 17010KT 30/14 A2998 RMK A01 T02960142  RH  039%=      5-min Rain = 0
KCL1 180411Z 17010KT 30/14 A2998 RMK A01 T02950142  RH  039%=      5-min Rain = 0
KCL1 180412Z 17008KT 30/14 A2998 RMK A01 T02950142  RH  039%=      5-min Rain = 0
KCL1 180413Z 17011KT 29/14 A2998 RMK A01 T02940142  RH  039%=      5-min Rain = 0
KCL1 180414Z 17009KT 29/14 A2998 RMK A01 T02940142  RH  040%=      5-min Rain = 0
KCL1 180415Z 17009KT 29/14 A2998 RMK A01 T02930142  RH  040%=      5-min Rain = 0
KCL1 180416Z 17010KT 29/14 A2998 RMK A01 T02920142  RH  040%=      5-min Rain = 0
KCL1 180417Z 17011KT 29/14 A2998 RMK A01 T02920142  RH  040%=      5-min Rain = 0
KCL1 180418Z 18009KT 29/14 A2998 RMK A01 T02930142  RH  040%=      5-min Rain = 0
KCL1 180419Z 17009KT 29/14 A2998 RMK A01 T02930142  RH  040%=      5-min Rain = 0
KCL1 180420Z 16011KT 29/14 A2998 RMK A01 T02930142  RH  040%=      5-min Rain = 0
KCL1 180421Z 17008KT 29/14 A2998 RMK A01 T02930142  RH  040%=      5-min Rain = 0
KCL1 180422Z 16012G17KT 29/14 A2998 RMK A01 T02920142  RH  040%=      5-min Rain = 0
KCL1 180423Z 17014KT 29/14 A2998 RMK A01 T02910142  RH  040%=      5-min Rain = 0
KCL1 180424Z 17012KT 29/14 A2998 RMK A01 T02920142  RH  040%=      5-min Rain = 0
KCL1 180425Z 17016KT 29/14 A2998 RMK A01 T02920142  RH  040%=      5-min Rain = 0
KCL1 180426Z 16016G23KT 29/14 A2998 RMK A01 T02930142  RH  040%=      5-min Rain = 0
KCL1 180427Z 16016KT 29/14 A2998 RMK A01 T02930142  RH  040%=      5-min Rain = 0
KCL1 180428Z 16012KT 29/14 A2998 RMK A01 T02930143  RH  040%=      5-min Rain = 0
KCL1 180429Z 16012G18KT 29/14 A2998 RMK A01 T02930143  RH  040%=      5-min Rain = 0
KCL1 180430Z 16012KT 29/14 A2998 RMK A01 T02930143  RH  040%=      5-min Rain = 0
KCL1 180431Z 17010KT 29/14 A2998 RMK A01 T02920143  RH  040%=      5-min Rain = 0
KCL1 180432Z 16013G20KT 29/14 A2998 RMK A01 T02920144  RH  040%=      5-min Rain = 0
KCL1 180433Z 16011G18KT 29/14 A2998 RMK A01 T02910144  RH  041%=      5-min Rain = 0
KCL1 180434Z 17012KT 29/15 A2998 RMK A01 T02910145  RH  041%=      5-min Rain = 0
KCL1 180435Z 17015KT 29/15 A2998 RMK A01 T02910145  RH  041%=      5-min Rain = 0
KCL1 180436Z 16017KT 29/15 A2998 RMK A01 T02910146  RH  041%=      5-min Rain = 0
KCL1 180437Z 16012KT 29/15 A2998 RMK A01 T02910146  RH  041%=      5-min Rain = 0
KCL1 180438Z 16014KT 29/15 A2998 RMK A01 T02910147  RH  042%=      5-min Rain = 0
KCL1 180439Z 16016KT 29/15 A2998 RMK A01 T02910149  RH  042%=      5-min Rain = 0
KCL1 180440Z 18014G19KT 29/15 A2998 RMK A01 T02910149  RH  042%=      5-min Rain = 0
KCL1 180441Z 16012KT 29/15 A2999 RMK A01 T02900149  RH  042%=      5-min Rain = 0
KCL1 180442Z 16014KT 29/15 A2998 RMK A01 T02900149  RH  042%=      5-min Rain = 0
KCL1 180443Z 16017G22KT 29/15 A2998 RMK A01 T02900151  RH  043%=      5-min Rain = 0
KCL1 180444Z 17016KT 29/15 A2998 RMK A01 T02900150  RH  043%=      5-min Rain = 0
KCL1 180445Z 15015KT 29/15 A2998 RMK A01 T02900150  RH  043%=      5-min Rain = 0
KCL1 180446Z 17015KT 29/15 A2998 RMK A01 T02900151  RH  043%=      5-min Rain = 0
KCL1 180447Z 16012KT 29/15 A2999 RMK A01 T02900152  RH  043%=      5-min Rain = 0
KCL1 180448Z 15011KT 29/15 A2998 RMK A01 T02890151  RH  043%=      5-min Rain = 0
KCL1 180449Z 17014G19KT 29/15 A2998 RMK A01 T02880152  RH  043%=      5-min Rain = 0
KCL1 180450Z 16014KT 29/15 A2999 RMK A01 T02880153  RH  044%=      5-min Rain = 0
KCL1 180451Z 17012G17KT 29/15 A2998 RMK A01 T02870153  RH  044%=      5-min Rain = 0
KCL1 180452Z 16011KT 29/15 A2999 RMK A01 T02870153  RH  044%=      5-min Rain = 0
KCL1 180453Z 16012G17KT 29/15 A2999 RMK A01 T02870153  RH  044%=      5-min Rain = 0
KCL1 180454Z 16014KT 29/15 A2999 RMK A01 T02860154  RH  045%=      5-min Rain = 0
KCL1 180455Z 16014G19KT 29/16 A2999 RMK A01 T02860156  RH  045%=      5-min Rain = 0
KCL1 180456Z 17013G18KT 29/16 A2998 RMK A01 T02850156  RH  045%=      5-min Rain = 0
KCL1 180457Z 16014KT 29/16 A2998 RMK A01 T02860156  RH  045%=      5-min Rain = 0
KCL1 180458Z 17016KT 29/16 A2998 RMK A01 T02860157  RH  046%=      5-min Rain = 0
KCL1 180459Z 17013KT 29/16 A2998 RMK A01 T02850156  RH  045%=      5-min Rain = 0

Page generated in 0.0968 seconds.